Buoy 48507

sailwx.info

Track history (hours):
 
Tides and Currents Weather Stations Pressure Air Temp Water Temp Dewpoint Dewpoint Depression Visibility Wind Speed Wind Dir Waves Ship Positions

Drifting buoy 48507

Last reported at 2017-Oct-17 01:30 UTC. Time now 2017-Oct-17 02:18 UTC.
Position N 70°28' W 102°18'.

Barometer 1005.1 mb
Air temperature -12.4 ° C

Date/timePositionNaut miles runAvg speedWind from/ knotsBaromVisibWave heightAir tempDewpointWater temp
2017-Oct-17 01:30N 70°28' W 102°18'0 0.0 1005.1 -12.4
2017-Oct-17 01:20N 70°28' W 102°18'0 0.0 1005.1 -12.4
2017-Oct-17 01:10N 70°28' W 102°18'0 0.0 1005.1 -13.0
2017-Oct-17 00:50N 70°28' W 102°18'0 0.0 1005.0 -12.3
2017-Oct-17 00:10N 70°28' W 102°18'0 0.0 1005.0 -12.0
2017-Oct-17 00:00N 70°28' W 102°18'0 0.0 1005.0 -12.0
2017-Oct-16 23:50N 70°28' W 102°18'0 0.0 1005.0 -12.4
2017-Oct-16 23:40N 70°28' W 102°18'0 0.0 1004.8 -12.6
2017-Oct-16 23:30N 70°28' W 102°18'0 0.0 1004.8 -12.6
2017-Oct-16 23:20N 70°28' W 102°18'0 0.0 1005.0 -12.8
2017-Oct-16 23:10N 70°28' W 102°18'0 0.0 1005.0 -12.8
2017-Oct-16 22:30N 70°28' W 102°18'0 0.0 1004.8 -12.8
2017-Oct-16 22:20N 70°28' W 102°18'0 0.0 1004.8 -12.8
2017-Oct-16 22:10N 70°28' W 102°18'0 1.2 1004.8 -13.0
2017-Oct-16 22:00N 70°28' W 102°19'0 1.2 1004.8 -13.0
2017-Oct-16 21:50N 70°28' W 102°18'0 0.6 1004.7 -13.3
2017-Oct-16 21:30N 70°28' W 102°17'0 0.0 1004.6 -13.7
2017-Oct-16 20:50N 70°28' W 102°17'0 1.2 1004.4 -13.5
2017-Oct-16 20:40N 70°28' W 102°18'0 0.0 1004.3 -13.4
2017-Oct-16 20:30N 70°28' W 102°18'0 0.0 1004.3 -13.4
2017-Oct-16 20:20N 70°28' W 102°18'0 0.6 1004.4 -13.4
2017-Oct-16 20:00N 70°28' W 102°19'0 2.4 1004.3 -13.2
2017-Oct-16 19:50N 70°28' W 102°17'0 0.0 1004.3 -13.4
2017-Oct-16 19:10N 70°28' W 102°17'0 1.2 1004.3 -14.1
2017-Oct-16 19:00N 70°28' W 102°18'1 3.8 1004.3 -14.1
2017-Oct-16 18:50N 70°28' W 102°17'1 3.8 1004.3 -14.7
2017-Oct-16 18:40N 70°28' W 102°18'0 0.0 1004.3 -14.7
2017-Oct-16 18:30N 70°28' W 102°18'0 2.4 1004.3 -15.3
2017-Oct-16 18:20N 70°28' W 102°17'0 2.4 1004.3 -16.2
2017-Oct-16 18:10N 70°28' W 102°18'0 0.0 1004.3 -16.6
2017-Oct-16 17:30N 70°28' W 102°18'0 0.0 1004.4 -18.1
2017-Oct-16 17:20N 70°28' W 102°18'0 0.0 1004.4 -18.1
2017-Oct-16 17:10N 70°28' W 102°18'0 0.0 1004.4 -18.9
2017-Oct-16 17:00N 70°28' W 102°18'0 0.0 1004.4 -18.9
2017-Oct-16 16:40N 70°28' W 102°18'0 2.4 1004.4 -20.5
2017-Oct-16 16:30N 70°28' W 102°19'0 0.5 1004.4 -20.6
2017-Oct-16 15:40N 70°28' W 102°18'0 1.2 1004.2 -21.4
2017-Oct-16 15:30N 70°28' W 102°17'0 2.4 1004.2 -21.8
2017-Oct-16 15:20N 70°28' W 102°19'0 2.4 1004.2 -21.8
2017-Oct-16 15:10N 70°28' W 102°17'0 1.2 1004.2 -22.1
2017-Oct-16 15:00N 70°28' W 102°18'0 1.2 1004.2 -22.3
2017-Oct-16 14:50N 70°28' W 102°17'0 0.0 1004.0 -22.6
2017-Oct-16 14:10N 70°28' W 102°17'0 1.2 1003.8 -22.7
2017-Oct-16 14:00N 70°28' W 102°18'0 0.0 1003.8 -22.7
2017-Oct-16 13:50N 70°28' W 102°18'0 0.0 1003.6 -22.9
2017-Oct-16 13:40N 70°28' W 102°18'0 0.6 1003.6 -22.9
2017-Oct-16 13:20N 70°28' W 102°17'0 2.4 1003.8 -23.2
2017-Oct-16 13:10N 70°28' W 102°19'0 0.0 1003.8 -23.2
2017-Oct-16 12:30N 70°28' W 102°19'0 0.0 1003.6 -22.8
2017-Oct-16 12:20N 70°28' W 102°19'0 0.0 1003.6 -22.8
2017-Oct-16 12:10N 70°28' W 102°19'0 0.0 -22.7
2017-Oct-16 12:00N 70°28' W 102°19'0 1.2 1003.5 -22.7
2017-Oct-16 11:50N 70°28' W 102°18'0 0.0 1003.5 -22.6
2017-Oct-16 11:40N 70°28' W 102°18'0 0.0 1003.3 -22.3
2017-Oct-16 11:30N 70°28' W 102°18'0 0.0 1003.3 -22.3
2017-Oct-16 10:50N 70°28' W 102°18'0 0.0 1003.1 -22.2
2017-Oct-16 10:40N 70°28' W 102°18'0 0.0 1002.9 -22.2
2017-Oct-16 10:20N 70°28' W 102°18'0 0.0 1002.9 -22.3
2017-Oct-16 10:10N 70°28' W 102°18'0 0.0 1002.9 -22.3
2017-Oct-16 10:00N 70°28' W 102°18'0 0.0 1002.8 -22.1
2017-Oct-16 09:00N 70°28' W 102°18'0 0.0 1002.7 -22.0
2017-Oct-16 08:50N 70°28' W 102°18'0 0.0 1002.8 -22.0
2017-Oct-16 08:20N 70°28' W 102°18'0 0.0 1002.7 -21.8
2017-Oct-16 08:10N 70°28' W 102°18'0 0.0 1002.7 -21.8
2017-Oct-16 07:20N 70°28' W 102°18'0 0.0 1002.7 -20.9
2017-Oct-16 07:10N 70°28' W 102°18'0 0.0 1002.7 -20.9
2017-Oct-16 07:00N 70°28' W 102°18'0 0.0 1002.7 -20.5
2017-Oct-16 06:40N 70°28' W 102°18'0 0.0 1002.7 -19.9
2017-Oct-16 06:10N 70°28' W 102°18'0 0.0 1002.7 -18.4
2017-Oct-16 05:20N 70°28' W 102°18'0 0.0 1002.7 -16.3
2017-Oct-16 05:10N 70°28' W 102°18'0 0.0 1002.7 -15.8
2017-Oct-16 05:00N 70°28' W 102°18'0 0.0 1002.7 -15.8
2017-Oct-16 04:30N 70°28' W 102°18'0 0.0 1002.7 -15.8
2017-Oct-16 03:40N 70°28' W 102°18'0 0.0 1002.8 -15.8
2017-Oct-16 03:30N 70°28' W 102°18'0 0.0 1002.9 -15.8
2017-Oct-16 03:20N 70°28' W 102°18'0 0.6 1002.9 -15.8
2017-Oct-16 03:00N 70°28' W 102°17'0 0.0 1002.9 -16.0
2017-Oct-16 02:50N 70°28' W 102°17'0 0.0 1002.9 -15.9
2017-Oct-16 02:00N 70°28' W 102°17'0 1.2 1002.9 -14.4
2017-Oct-16 01:50N 70°28' W 102°18'0 0.0 1003.1 -13.9
2017-Oct-16 01:40N 70°28' W 102°18'0 0.0 1003.1 -13.9
2017-Oct-16 01:30N 70°28' W 102°18'0 0.0 1003.1 -13.7
2017-Oct-16 01:20N 70°28' W 102°18'0 0.0 1003.1 -13.5
2017-Oct-16 01:10N 70°28' W 102°18'0 0.2 1003.2 -13.4
2017-Oct-16 00:20N 70°28' W 102°17'0 0.0 1003.3 -12.9
2017-Oct-16 00:10N 70°28' W 102°17'0 1.2 1003.3 -12.9
2017-Oct-16 00:00N 70°28' W 102°18'0 0.0 1003.3 -12.5
2017-Oct-15 23:50N 70°28' W 102°18'0 0.0 1003.3 -12.5
2017-Oct-15 23:30N 70°28' W 102°18'0 0.0 1003.5 -12.0
2017-Oct-15 22:40N 70°28' W 102°18'0 0.0 1003.6 -11.4
2017-Oct-15 22:30N 70°28' W 102°18'0 0.0 1003.6
2017-Oct-15 22:20N 70°28' W 102°18'0 0.0 1003.6 -11.1
2017-Oct-15 22:10N 70°28' W 102°18'0 0.0 1003.6 -11.1
2017-Oct-15 22:00N 70°28' W 102°18'0 1.2 1003.8 -10.9
2017-Oct-15 21:50N 70°28' W 102°17'0 0.0 1003.8
2017-Oct-15 21:00N 70°28' W 102°17'0 1.2 1003.8 -10.4
2017-Oct-15 20:50N 70°28' W 102°18'0 0.0 1003.8 -10.3
2017-Oct-15 20:40N 70°28' W 102°18'0 0.0 1003.8 -10.3
2017-Oct-15 20:30N 70°28' W 102°18'0 0.0 1003.8 -10.3
2017-Oct-15 20:20N 70°28' W 102°18'0 0.0 1003.8 -10.4
2017-Oct-15 20:10N 70°28' W 102°18'0 0.0 1003.8 -10.3
2017-Oct-15 19:20N 70°28' W 102°18'0 0.0
2017-Oct-15 19:10N 70°28' W 102°18'0 0.0 -10.4
2017-Oct-15 19:00N 70°28' W 102°18'0 0.0 1003.9 -10.4
2017-Oct-15 18:50N 70°28' W 102°18'0 0.0 1004.0 -10.5
2017-Oct-15 18:40N 70°28' W 102°18'0 0.0 1004.0 -10.7
2017-Oct-15 18:30N 70°28' W 102°18'0 0.0 1004.0 -10.7
2017-Oct-15 17:40N 70°28' W 102°18'0 0.0 1004.2 -11.4
2017-Oct-15 17:30N 70°28' W 102°18'0 1.2 1004.2 -11.4
2017-Oct-15 17:20N 70°28' W 102°17'0 0.0 1004.2 -11.5
2017-Oct-15 17:10N 70°28' W 102°17'0 1.2 1004.2 -11.5
2017-Oct-15 17:00N 70°28' W 102°18'0 0.0 1004.3 -11.7
2017-Oct-15 16:50N 70°28' W 102°18'0 0.0 1004.3 -11.7
2017-Oct-15 16:00N 70°28' W 102°18'0 1.2 1004.7 -12.3
2017-Oct-15 15:50N 70°28' W 102°19'0 0.0 1004.7 -12.3
2017-Oct-15 15:40N 70°28' W 102°19'0 0.0 1004.7 -12.4
2017-Oct-15 15:30N 70°28' W 102°19'0 0.6 1004.7 -12.4
2017-Oct-15 15:10N 70°28' W 102°18'0 0.0 1005.0 -12.5
2017-Oct-15 14:20N 70°28' W 102°18'0 0.0 1005.3 -12.4
2017-Oct-15 14:10N 70°28' W 102°18'0 0.0 1005.3 -12.4
2017-Oct-15 14:00N 70°28' W 102°18'0 1.2 1005.3 -12.5
2017-Oct-15 13:50N 70°28' W 102°17'0 0.0 1005.3 -12.5
2017-Oct-15 13:40N 70°28' W 102°17'0 0.0 1005.3 -12.6
2017-Oct-15 13:30N 70°28' W 102°17'0 0.0 -12.6
2017-Oct-15 12:40N 70°28' W 102°17'0 1.2 1005.8 -13.0
2017-Oct-15 12:30N 70°28' W 102°18'0 0.0 1005.8 -13.1
2017-Oct-15 12:20N 70°28' W 102°18'0 0.0 1005.8 -13.2
2017-Oct-15 12:10N 70°28' W 102°18'0 0.0 1005.8 -13.2
2017-Oct-15 12:00N 70°28' W 102°18'0 0.0 1005.8 -13.3
2017-Oct-15 11:00N 70°28' W 102°18'0 1.2 1006.4 -14.4
2017-Oct-15 10:50N 70°28' W 102°19'0 1.2 1006.4 -14.4
2017-Oct-15 10:40N 70°28' W 102°18'0 0.0 1006.4 -14.6
2017-Oct-15 10:30N 70°28' W 102°18'0 0.0 1006.4 -15.3
2017-Oct-15 10:20N 70°28' W 102°18'0 0.0 1006.4 -15.3
2017-Oct-15 09:10N 70°28' W 102°18'0 0.0 1006.8 -16.8
2017-Oct-15 09:00N 70°28' W 102°18'0 0.0 1006.9
2017-Oct-15 08:50N 70°28' W 102°18'0 0.0 1006.9 -18.0
2017-Oct-15 08:40N 70°28' W 102°18'0 0.0 1006.9 -18.0
2017-Oct-15 07:30N 70°28' W 102°18'0 0.0 1007.3 -18.4
2017-Oct-15 07:20N 70°28' W 102°18'0 0.0 1007.3 -18.4
2017-Oct-15 07:10N 70°28' W 102°18'0 0.0 1007.3 -18.3
2017-Oct-15 05:40N 70°28' W 102°18'0 0.0 1007.9 -17.5
2017-Oct-15 05:30N 70°28' W 102°18'0 0.0 1007.9 -17.5
2017-Oct-15 05:20N 70°28' W 102°18'0 0.0 1008.0 -17.4
2017-Oct-15 05:10N 70°28' W 102°18'0 0.0 1008.0
2017-Oct-15 04:50N 70°28' W 102°18'0 0.0 1008.0
2017-Oct-15 04:00N 70°28' W 102°18'0 1.2 1008.3 -18.0
2017-Oct-15 03:50N 70°28' W 102°17'0 1.2 1008.4 -17.8
2017-Oct-15 03:40N 70°28' W 102°18'0 1.2 1008.4 -17.5
2017-Oct-15 03:30N 70°28' W 102°17'0 0.0 1008.4
2017-Oct-15 03:20N 70°28' W 102°17'0 1.2 1008.5 -17.2
2017-Oct-15 03:10N 70°28' W 102°18'0 0.0 1008.5 -17.0
2017-Oct-15 02:20N 70°28' W 102°18'0 0.0 1008.8 -16.4
2017-Oct-15 02:10N 70°28' W 102°18'0 0.0 1008.8 -16.1
2017-Oct-15 02:00N 70°28' W 102°18'0 0.0 1008.8 -16.1
2017-Oct-15 01:50N 70°28' W 102°18'0 0.0 1008.8 -15.9
2017-Oct-15 01:40N 70°28' W 102°18'0 0.0 1008.8 -15.8
2017-Oct-15 01:30N 70°28' W 102°18'0 0.0 1009.0 -15.8
2017-Oct-15 00:40N 70°28' W 102°18'1 3.8 1008.8 -14.4
2017-Oct-15 00:30N 70°28' W 102°17'1 3.8 1009.0 -14.2
2017-Oct-15 00:20N 70°28' W 102°18'0 0.0 1009.0
2017-Oct-15 00:10N 70°28' W 102°18'0 0.0 1009.1 -13.9
2017-Oct-15 00:00N 70°28' W 102°18'0 0.0 1009.1
2017-Oct-14 23:50N 70°28' W 102°18'0 0.0 1009.1
2017-Oct-14 23:00N 70°28' W 102°18'0 0.0 1009.0 -12.8
2017-Oct-14 22:50N 70°28' W 102°18'0 0.0 1009.0 -12.7
2017-Oct-14 22:40N 70°28' W 102°18'0 0.0 1009.0 -12.7
2017-Oct-14 22:30N 70°28' W 102°18'0 0.0 1009.0 -12.7
2017-Oct-14 22:20N 70°28' W 102°18'0 1.2 1009.0 -12.6
2017-Oct-14 22:10N 70°28' W 102°17'0 0.0 1009.0 -12.6
2017-Oct-14 21:10N 70°28' W 102°17'0 1.2 1009.0 -12.3
2017-Oct-14 21:00N 70°28' W 102°18'0 0.0 1009.0 -12.3
2017-Oct-14 20:50N 70°28' W 102°18'0 0.0 1009.1 -12.3
2017-Oct-14 20:40N 70°28' W 102°18'0 1.2 1009.1 -12.2
2017-Oct-14 20:30N 70°28' W 102°17'0 0.2 1009.1 -12.2
2017-Oct-14 19:30N 70°28' W 102°18'0 0.0 1009.2 -12.0
2017-Oct-14 19:20N 70°28' W 102°18'0 0.0 1009.1 -12.0
2017-Oct-14 19:10N 70°28' W 102°18'0 0.0 1009.2 -12.1
2017-Oct-14 19:00N 70°28' W 102°18'0 0.0 1009.2 -12.2
2017-Oct-14 18:50N 70°28' W 102°18'0 0.0
2017-Oct-14 18:10N 70°28' W 102°18'0 0.0 1009.1 -12.9
2017-Oct-14 18:00N 70°28' W 102°18'0 0.0 1009.1 -12.9
2017-Oct-14 17:50N 70°28' W 102°18'0 0.0 1009.1 -13.0
2017-Oct-14 17:40N 70°28' W 102°18'0 1.2 1009.1
2017-Oct-14 17:30N 70°28' W 102°17'0 1.2 1009.1 -13.2
2017-Oct-14 17:20N 70°28' W 102°18'0 1.2 1009.0 -13.2
2017-Oct-14 17:10N 70°28' W 102°17'0 0.2 1009.0
2017-Oct-14 16:10N 70°28' W 102°18'0 1.2 1009.1 -13.0
2017-Oct-14 16:00N 70°28' W 102°17'0 1.2 1009.1
2017-Oct-14 15:50N 70°28' W 102°18'0 0.0 1009.2 -12.9
2017-Oct-14 15:40N 70°28' W 102°18'0 0.0 1009.2 -12.9
2017-Oct-14 15:30N 70°28' W 102°18'0 0.0 1009.1 -12.9
2017-Oct-14 14:30N 70°28' W 102°18'0 1.2 1009.1 -12.8
2017-Oct-14 14:20N 70°28' W 102°17'0 2.4 1009.1 -12.8
2017-Oct-14 14:10N 70°28' W 102°19'0 0.0 1009.2 -12.6
2017-Oct-14 14:00N 70°28' W 102°19'0 1.2 1009.2 -12.6
2017-Oct-14 13:50N 70°28' W 102°18'0 0.0 1009.2 -12.6
2017-Oct-14 13:00N 70°28' W 102°18'0 0.0 1009.1 -12.2
2017-Oct-14 12:50N 70°28' W 102°18'0 1.2 1009.1 -12.2
2017-Oct-14 12:40N 70°28' W 102°17'0 0.0 1009.1 -12.2
2017-Oct-14 12:30N 70°28' W 102°17'0 0.0 -12.2
2017-Oct-14 12:20N 70°28' W 102°17'0 0.2 1009.2 -12.2
2017-Oct-14 11:10N 70°28' W 102°18'0 0.0 1009.2 -12.2
2017-Oct-14 11:00N 70°28' W 102°18'0 0.0 1009.4 -12.2
2017-Oct-14 10:50N 70°28' W 102°18'0 0.0 1009.4 -12.2
2017-Oct-14 10:40N 70°28' W 102°18'0 0.2 1009.5 -12.3
2017-Oct-14 09:30N 70°28' W 102°17'0 0.0 1009.6 -12.6
2017-Oct-14 09:20N 70°28' W 102°17'0 0.1 1009.6 -12.6
2017-Oct-14 07:50N 70°28' W 102°18'0 1.2 1009.9 -13.7
2017-Oct-14 07:40N 70°28' W 102°17'0 0.1 1009.9 -13.7
2017-Oct-14 06:10N 70°28' W 102°18'0 0.0 1010.2 -14.4
2017-Oct-14 06:00N 70°28' W 102°18'0 0.0 1010.2 -14.4
2017-Oct-14 05:30N 70°28' W 102°18'0 0.0 1010.3 -13.8
2017-Oct-14 05:10N 70°28' W 102°18'0 0.0 1010.3 -13.8
2017-Oct-14 04:30N 70°28' W 102°18'1 3.6 1010.6 -15.0
2017-Oct-14 04:20N 70°28' W 102°18'1 3.6 1010.7 -14.5
2017-Oct-14 04:10N 70°28' W 102°18'0 0.6 1010.7 -14.5
2017-Oct-14 03:50N 70°28' W 102°17'0 1.2 1011.1 -14.4
2017-Oct-14 03:40N 70°28' W 102°18'0 1.2 1011.1 -14.4
2017-Oct-14 03:30N 70°28' W 102°17'0 0.0 1011.3 -14.1
2017-Oct-14 02:50N 70°28' W 102°17'1 3.8 1011.6 -13.4
2017-Oct-14 02:40N 70°28' W 102°18'1 3.8 1011.7 -13.1
2017-Oct-14 02:30N 70°28' W 102°17'0 0.4 1011.7 -12.3
2017-Oct-14 02:00N 70°28' W 102°18'0 0.0 1012.1 -11.9
2017-Oct-14 01:50N 70°28' W 102°18'0 0.0 1012.1 -11.8
2017-Oct-14 01:10N 70°28' W 102°18'0 0.0 1012.5 -11.7
2017-Oct-14 01:00N 70°28' W 102°18'0 0.0 1012.5 -11.7
2017-Oct-14 00:50N 70°28' W 102°18'1 4.3 1012.5 -11.7
2017-Oct-14 00:40N 70°28' W 102°17'1 4.3 1012.5 -11.6
2017-Oct-14 00:30N 70°28' W 102°18'0 0.0 1012.5 -11.5
2017-Oct-14 00:20N 70°28' W 102°18'0 0.0 1012.5 -11.5
2017-Oct-14 00:10N 70°28' W 102°18'1 0.9 1012.5
2017-Oct-13 23:30N 70°28' W 102°19'0 0.0 1012.6 -11.4
2017-Oct-13 23:20N 70°28' W 102°19'1 4.3 1012.6 -11.4
2017-Oct-13 23:10N 70°28' W 102°17'0 0.0 1012.6 -11.4
2017-Oct-13 23:00N 70°28' W 102°17'0 1.2 1012.6 -11.4
2017-Oct-13 22:50N 70°28' W 102°18'0 0.0 1012.6 -11.4
2017-Oct-13 22:40N 70°28' W 102°18'0 0.0 1012.9 -11.4
2017-Oct-13 22:30N 70°28' W 102°18'0 0.0 -11.4
2017-Oct-13 21:40N 70°28' W 102°18'0 0.0 1013.3 -11.4
2017-Oct-13 21:30N 70°28' W 102°18'0 0.0 1013.3 -11.4
2017-Oct-13 21:20N 70°28' W 102°18'0 0.0 1013.5 -11.4
2017-Oct-13 21:10N 70°28' W 102°18'0 0.0 1013.5 -11.4
2017-Oct-13 21:00N 70°28' W 102°18'0 0.0 1013.6 -11.4
2017-Oct-13 20:50N 70°28' W 102°18'0 0.0 1013.6 -11.4
2017-Oct-13 20:00N 70°28' W 102°18'0 0.0 1013.9 -10.8
2017-Oct-13 19:40N 70°28' W 102°18'0 1.2 1013.9 -10.7
2017-Oct-13 19:30N 70°28' W 102°17'0 1.2 1013.7 -10.8
2017-Oct-13 19:20N 70°28' W 102°18'0 0.0 1013.7 -10.8
2017-Oct-13 19:10N 70°28' W 102°18'0 0.0 1013.9
2017-Oct-13 18:20N 70°28' W 102°18'0 0.0 1014.2 -10.9
2017-Oct-13 18:10N 70°28' W 102°18'0 0.0 1014.2 -10.9
2017-Oct-13 18:00N 70°28' W 102°18'0 0.0 1014.3 -11.0
2017-Oct-13 17:50N 70°28' W 102°18'0 0.0 -11.0
2017-Oct-13 17:40N 70°28' W 102°18'0 0.0 1014.6 -11.1
2017-Oct-13 17:30N 70°28' W 102°18'0 0.0 1014.6 -11.1
2017-Oct-13 16:50N 70°28' W 102°18'0 0.0 1015.0 -11.4
2017-Oct-13 16:40N 70°28' W 102°18'0 0.0 1015.1 -11.4
2017-Oct-13 16:30N 70°28' W 102°18'0 0.0 1015.1 -11.4
2017-Oct-13 16:20N 70°28' W 102°18'0 0.0 1015.1 -11.4
2017-Oct-13 16:10N 70°28' W 102°18'0 0.0 1015.2 -11.4
2017-Oct-13 16:00N 70°28' W 102°18'0 1.2 1015.2 -11.4
2017-Oct-13 15:50N 70°28' W 102°19'0 0.2 1015.2 -11.4
2017-Oct-13 15:00N 70°28' W 102°18'0 0.0 1015.8 -11.5
2017-Oct-13 14:50N 70°28' W 102°18'0 0.0 1015.8 -11.5
2017-Oct-13 14:40N 70°28' W 102°18'0 0.0 1015.9 -11.5
2017-Oct-13 14:30N 70°28' W 102°18'0 0.0 1015.9
2017-Oct-13 14:20N 70°28' W 102°18'0 0.0 1015.9 -11.4
2017-Oct-13 14:10N 70°28' W 102°18'0 0.0 1015.9 -11.4
2017-Oct-13 13:20N 70°28' W 102°18'0 0.0 1016.3 -11.3
2017-Oct-13 13:10N 70°28' W 102°18'0 0.0 1016.3 -11.3
2017-Oct-13 13:00N 70°28' W 102°18'0 0.0 1016.5 -11.3
2017-Oct-13 12:50N 70°28' W 102°18'0 1.2 1016.5 -11.3
2017-Oct-13 12:40N 70°28' W 102°19'0 0.0 1016.8 -11.3
2017-Oct-13 12:30N 70°28' W 102°19'0 0.2 1016.8 -11.3
2017-Oct-13 11:40N 70°28' W 102°18'0 0.0 1016.9 -11.0
2017-Oct-13 11:30N 70°28' W 102°18'0 0.0 1016.9 -11.0
2017-Oct-13 11:20N 70°28' W 102°18'0 0.0 1016.9 -11.0
2017-Oct-13 11:10N 70°28' W 102°18'1 4.3 1016.9 -11.1
2017-Oct-13 11:00N 70°28' W 102°17'0 0.0 -11.1
2017-Oct-13 10:50N 70°28' W 102°17'1 0.9 1016.9 -11.1
2017-Oct-13 10:00N 70°28' W 102°18'0 0.0 1016.9 -10.8
2017-Oct-13 09:50N 70°28' W 102°18'0 0.0 1016.9 -10.8
2017-Oct-13 09:40N 70°28' W 102°18'0 0.0 1017.0 -11.1
2017-Oct-13 09:30N 70°28' W 102°18'0 0.0 1017.0 -11.1
2017-Oct-13 07:50N 70°28' W 102°18'0 0.0 1017.7 -12.2
2017-Oct-13 06:40N 70°28' W 102°18'0 0.0 1018.0 -12.5
2017-Oct-13 06:30N 70°28' W 102°18'0 0.0 1018.0 -12.5
2017-Oct-13 06:20N 70°28' W 102°18'0 0.0 1018.0 -12.6
2017-Oct-13 06:10N 70°28' W 102°18'0 0.0 1018.0 -12.7
2017-Oct-13 05:40N 70°28' W 102°18'0 0.0 1018.3 -12.8
2017-Oct-13 05:00N 70°28' W 102°18'0 0.0 1018.3 -12.9
2017-Oct-13 04:50N 70°28' W 102°18'0 0.0 1018.3 -12.9
2017-Oct-13 04:40N 70°28' W 102°18'0 0.3 1018.3 -12.9
2017-Oct-13 04:00N 70°28' W 102°17'0 1.2 1018.4 -12.6
2017-Oct-13 03:50N 70°28' W 102°18'0 0.0 1018.4 -12.6
2017-Oct-13 03:20N 70°28' W 102°18'0 0.0 1018.4 -12.5
2017-Oct-13 03:10N 70°28' W 102°18'0 0.0 1018.4 -12.5
2017-Oct-13 03:00N 70°28' W 102°18'0 0.0 1018.4 -12.5
2017-Oct-13 02:20N 70°28' W 102°18'0 0.0 1018.4 -12.2
2017-Oct-13 02:10N 70°28' W 102°18'0 0.0 1018.5 -12.2
2017-Oct-13 01:40N 70°28' W 102°18'0 0.0 1018.5 -12.2
2017-Oct-13 01:30N 70°28' W 102°18'0 0.0 1018.5 -12.2
2017-Oct-13 01:20N 70°28' W 102°18'0 1.2 1018.4 -12.1
2017-Oct-13 01:10N 70°28' W 102°17'0 0.6 1018.4 -12.1
2017-Oct-13 00:50N 70°28' W 102°18'0 1.2 1018.3 -11.9
2017-Oct-13 00:40N 70°28' W 102°17'0 1.2 1018.4 -11.8
2017-Oct-13 00:30N 70°28' W 102°18'0 0.0 1018.3 -11.7
2017-Oct-13 00:00N 70°28' W 102°18'0 0.0 1018.3 -11.5
2017-Oct-12 23:50N 70°28' W 102°18'0 2.4 1018.3 -11.5
2017-Oct-12 23:40N 70°28' W 102°17'0 0.0 1018.1 -11.5
2017-Oct-12 23:30N 70°28' W 102°17'0 1.2 1018.1 -11.5
2017-Oct-12 23:10N 70°28' W 102°18'0 0.0 1018.1 -11.5
2017-Oct-12 23:00N 70°28' W 102°18'0 0.0 1018.0 -11.5
2017-Oct-12 22:50N 70°28' W 102°18'0 0.0 1018.0
2017-Oct-12 22:20N 70°28' W 102°18'0 0.0 1018.0 -11.3
2017-Oct-12 22:10N 70°28' W 102°18'0 0.0 1018.0 -11.3
2017-Oct-12 22:00N 70°28' W 102°18'0 0.0 1018.1 -11.0
2017-Oct-12 21:50N 70°28' W 102°18'0 0.0 1018.1 -11.0
2017-Oct-12 21:30N 70°28' W 102°18'0 0.0 1017.8 -10.6
2017-Oct-12 21:20N 70°28' W 102°18'0 0.0 1017.8 -10.5
2017-Oct-12 21:10N 70°28' W 102°18'0 0.0 1017.8 -10.5
2017-Oct-12 20:20N 70°28' W 102°18'0 0.0 1017.6 -10.3
2017-Oct-12 20:10N 70°28' W 102°18'0 0.0 1017.6 -10.3
2017-Oct-12 19:50N 70°28' W 102°18'0 0.0 1017.4 -10.2
2017-Oct-12 19:40N 70°28' W 102°18'0 0.0 1017.4 -10.1
2017-Oct-12 19:30N 70°28' W 102°18'0 0.0 1017.4 -10.1
2017-Oct-12 18:50N 70°28' W 102°18'0 0.0 -10.1
2017-Oct-12 18:40N 70°28' W 102°18'0 0.0 1017.2 -10.1
2017-Oct-12 18:30N 70°28' W 102°18'0 0.0 1017.2 -10.2
2017-Oct-12 18:10N 70°28' W 102°18'0 0.0 1017.2 -10.2
2017-Oct-12 18:00N 70°28' W 102°18'0 0.0 1017.2 -10.3
2017-Oct-12 17:50N 70°28' W 102°18'0 0.0 1017.2 -10.3
2017-Oct-12 17:10N 70°28' W 102°18'0 0.0 1017.2 -10.4
2017-Oct-12 17:00N 70°28' W 102°18'0 0.0 1017.0 -10.4
2017-Oct-12 16:30N 70°28' W 102°18'0 1.2 1016.9 -10.6
2017-Oct-12 16:20N 70°28' W 102°17'0 1.2 1016.9 -10.6
2017-Oct-12 16:10N 70°28' W 102°18'0 0.0 1016.9 -10.6
2017-Oct-12 15:30N 70°28' W 102°18'0 1.2 1016.9 -11.1
2017-Oct-12 15:20N 70°28' W 102°17'0 0.0 1016.9 -11.1
2017-Oct-12 15:10N 70°28' W 102°17'0 0.6 1016.8 -11.3
2017-Oct-12 14:50N 70°28' W 102°18'0 0.0 1016.8 -11.4
2017-Oct-12 14:40N 70°28' W 102°18'0 0.0 1016.8 -11.5
2017-Oct-12 14:30N 70°28' W 102°18'0 0.0 1016.8 -11.5
2017-Oct-12 13:50N 70°28' W 102°18'0 0.0 1016.6 -11.3
2017-Oct-12 13:40N 70°28' W 102°18'0 0.4 1016.6 -11.1
2017-Oct-12 13:10N 70°28' W 102°17'0 0.0 1016.5 -11.1
2017-Oct-12 13:00N 70°28' W 102°17'0 2.4 1016.5 -11.1
2017-Oct-12 12:50N 70°28' W 102°19'0 0.0 1016.3 -11.1
2017-Oct-12 08:10N 70°28' W 102°18'0 0.0 1015.7 -12.9
2017-Oct-12 08:00N 70°28' W 102°18'0 0.2 1015.7 -12.9
2017-Oct-12 07:10N 70°28' W 102°17'0 0.0 1015.4 -12.7
2017-Oct-12 07:00N 70°28' W 102°17'0 1.2 1015.4 -12.7
2017-Oct-12 06:50N 70°28' W 102°18'0 0.0 1015.4 -12.6
2017-Oct-12 06:40N 70°28' W 102°18'0 0.0 1015.4 -12.6
2017-Oct-12 06:20N 70°28' W 102°18'0 0.0 1015.4
2017-Oct-12 06:00N 70°28' W 102°18'0 0.0 1015.4 -12.5
2017-Oct-12 05:30N 70°28' W 102°18'0 0.0 1015.2 -12.4
2017-Oct-12 05:20N 70°28' W 102°18'0 0.0 1015.1 -12.4
2017-Oct-12 05:10N 70°28' W 102°18'0 0.0 1014.8 -12.3
2017-Oct-12 05:00N 70°28' W 102°18'0 0.0 1014.8 -12.3
2017-Oct-12 04:20N 70°28' W 102°18'0 0.0 1014.7 -12.3
2017-Oct-12 04:10N 70°28' W 102°18'0 0.0 1014.6 -12.3
2017-Oct-12 03:50N 70°28' W 102°18'0 0.0 1014.6 -12.3
2017-Oct-12 03:40N 70°28' W 102°18'0 0.0 1014.6 -12.3
2017-Oct-12 03:20N 70°28' W 102°18'0 0.0 1014.6 -12.2
2017-Oct-12 03:10N 70°28' W 102°18'0 0.0 1014.4 -12.2
2017-Oct-12 02:40N 70°28' W 102°18'0 0.0 1014.3 -12.3
2017-Oct-12 02:30N 70°28' W 102°18'0 1.2 1014.3 -12.3
2017-Oct-12 02:20N 70°28' W 102°17'0 2.4 1014.3 -12.4
2017-Oct-12 02:10N 70°28' W 102°19'0 0.0 1014.3 -12.4
2017-Oct-12 02:00N 70°28' W 102°19'0 2.4 1014.3 -12.4
2017-Oct-12 01:50N 70°28' W 102°17'0 0.0 1014.0 -12.3
2017-Oct-12 01:40N 70°28' W 102°17'0 1.2 1014.0 -12.3
2017-Oct-12 01:30N 70°28' W 102°18'0 0.6 1014.0 -12.2
2017-Oct-12 01:10N 70°28' W 102°17'0 1.2 1014.0 -12.2
2017-Oct-12 01:00N 70°28' W 102°18'0 1.2 1014.0 -12.2
2017-Oct-12 00:50N 70°28' W 102°17'0 1.2 1013.9 -12.1
2017-Oct-12 00:40N 70°28' W 102°18'0 0.0 1013.9 -12.1
2017-Oct-12 00:30N 70°28' W 102°18'0 0.0 1013.9 -12.1
2017-Oct-12 00:20N 70°28' W 102°18'0 0.0 1013.9 -12.0
2017-Oct-12 00:10N 70°28' W 102°18'0 0.0 1013.9 -11.9
2017-Oct-12 00:00N 70°28' W 102°18'0 0.0 1013.9 -11.9
2017-Oct-11 23:30N 70°28' W 102°18'0 0.0 1013.7 -11.9
2017-Oct-11 23:20N 70°28' W 102°18'0 0.0 1013.7 -11.8
2017-Oct-11 23:10N 70°28' W 102°18'0 0.0 1013.7 -11.8
2017-Oct-11 23:00N 70°28' W 102°18'0 0.0 1013.6 -11.7
2017-Oct-11 22:50N 70°28' W 102°18'0 0.0 1013.6 -11.7
2017-Oct-11 22:40N 70°28' W 102°18'0 0.0 1013.6 -11.6
2017-Oct-11 22:20N 70°28' W 102°18'0 0.0 1013.5 -11.6
2017-Oct-11 21:40N 70°28' W 102°18'0 0.0 1013.2 -11.5
2017-Oct-11 21:30N 70°28' W 102°18'0 0.0 1013.1 -11.5
2017-Oct-11 21:20N 70°28' W 102°18'1 6.0 1013.1 -11.5
2017-Oct-11 21:10N 70°29' W 102°20'1 3.0 1012.9 -11.5
2017-Oct-11 20:50N 70°28' W 102°18'0 0.0 1013.1 -11.6
2017-Oct-11 20:40N 70°28' W 102°18'0 0.0 1013.1 -11.6
2017-Oct-11 20:00N 70°28' W 102°18'0 0.0 1012.6 -11.8
2017-Oct-11 19:50N 70°28' W 102°18'0 1.2 1012.6 -11.8
2017-Oct-11 19:40N 70°28' W 102°17'0 0.4 1012.4
2017-Oct-11 19:10N 70°28' W 102°18'0 0.0 1012.2 -11.8
2017-Oct-11 19:00N 70°28' W 102°18'1 1.3 1012.2 -11.8
2017-Oct-11 18:20N 70°28' W 102°16'1 5.1 1011.8
2017-Oct-11 18:10N 70°28' W 102°18'0 0.0 -11.9
2017-Oct-11 18:00N 70°28' W 102°18'0 0.0 1011.7 -11.9
2017-Oct-11 17:30N 70°28' W 102°18'0 0.0 1011.6 -11.4
2017-Oct-11 17:20N 70°28' W 102°18'0 0.0 1011.6 -11.4
2017-Oct-11 16:40N 70°28' W 102°18'0 1.2 1011.3 -11.6
2017-Oct-11 16:30N 70°28' W 102°17'0 0.0 1011.3 -11.6
2017-Oct-11 16:20N 70°28' W 102°17'0 1.2 1011.3 -11.6
2017-Oct-11 16:00N 70°28' W 102°16'1 3.6 1011.1 -11.6
2017-Oct-11 15:50N 70°28' W 102°18'0 0.0 1011.0 -11.6
2017-Oct-11 15:40N 70°28' W 102°18'0 0.3 1011.0 -11.6
2017-Oct-11 15:00N 70°28' W 102°17'0 1.2 1010.9 -11.5
2017-Oct-11 14:50N 70°28' W 102°18'0 1.2 1010.7 -11.5
2017-Oct-11 14:40N 70°28' W 102°19'0 0.6 1010.7 -11.5
2017-Oct-11 14:20N 70°28' W 102°18'0 0.0 -11.4
2017-Oct-11 14:10N 70°28' W 102°18'0 0.0 1010.5 -11.4
2017-Oct-11 14:00N 70°28' W 102°18'0 0.0 1010.5 -11.4
2017-Oct-11 13:50N 70°28' W 102°18'0 0.0 1010.5 -11.4
2017-Oct-11 13:20N 70°28' W 102°18'0 1.2 1010.3 -11.2
2017-Oct-11 13:10N 70°28' W 102°17'0 1.2 1010.3 -11.2
2017-Oct-11 13:00N 70°28' W 102°18'0 0.0 1010.3 -11.2
2017-Oct-11 12:40N 70°28' W 102°18'0 0.0 1010.2 -11.1
2017-Oct-11 12:30N 70°28' W 102°18'0 0.0 1010.2 -11.0
2017-Oct-11 12:20N 70°28' W 102°18'0 0.0 1010.2 -11.0
2017-Oct-11 11:40N 70°28' W 102°18'0 0.0 1010.2 -10.9
2017-Oct-11 11:30N 70°28' W 102°18'0 1.2 1010.0 -10.8
2017-Oct-11 11:20N 70°28' W 102°19'0 0.0 1010.2 -10.8
2017-Oct-11 11:00N 70°28' W 102°19'0 1.2 1010.0 -10.5
2017-Oct-11 10:50N 70°28' W 102°18'1 3.6 1010.0 -10.5
2017-Oct-11 10:40N 70°28' W 102°18'1 0.9 1009.9 -10.4
2017-Oct-11 10:00N 70°28' W 102°18'0 0.0 1009.8 -10.5
2017-Oct-11 09:50N 70°28' W 102°18'0 0.0 1009.8 -10.5
2017-Oct-11 09:20N 70°28' W 102°18'0 0.0 1009.9 -10.7
2017-Oct-11 09:10N 70°28' W 102°18'0 0.0 1009.9 -10.7
2017-Oct-11 08:20N 70°28' W 102°18'0 0.0 1009.8 -10.8
2017-Oct-11 08:10N 70°28' W 102°18'0 0.0 1009.8 -10.8
2017-Oct-11 07:40N 70°28' W 102°18'0 0.0 1009.8 -10.9
2017-Oct-11 07:30N 70°28' W 102°18'0 0.0 1009.8 -10.9
2017-Oct-11 07:10N 70°28' W 102°18'0 0.0 1009.8 -10.9
2017-Oct-11 07:00N 70°28' W 102°18'1 1.3 1009.8 -10.9
2017-Oct-11 06:30N 70°29' W 102°19'1 4.3 1009.9 -10.8
2017-Oct-11 06:20N 70°28' W 102°17'0 0.6 1009.9 -10.8
2017-Oct-11 06:00N 70°28' W 102°18'0 0.0 1009.9 -10.8
2017-Oct-11 05:50N 70°28' W 102°18'0 0.6 1009.9 -10.9
2017-Oct-11 05:30N 70°28' W 102°17'0 1.2 1010.0 -10.9
2017-Oct-11 05:20N 70°28' W 102°18'0 0.3 1010.2 -10.8
2017-Oct-11 04:40N 70°28' W 102°17'0 1.2 1010.2 -10.8
2017-Oct-11 04:30N 70°28' W 102°18'1 3.8 1010.2 -10.8
2017-Oct-11 04:20N 70°29' W 102°17'1 3.8 1010.3 -10.6
2017-Oct-11 04:10N 70°28' W 102°18'1 1.9 1010.3 -10.6
2017-Oct-11 03:50N 70°29' W 102°17'1 3.8 1010.3 -10.5
2017-Oct-11 03:40N 70°28' W 102°18'0 0.0 1010.3
2017-Oct-11 03:00N 70°28' W 102°18'0 0.0 1010.5 -10.2
2017-Oct-11 02:50N 70°28' W 102°18'0 1.2 1010.5 -10.2
2017-Oct-11 02:40N 70°28' W 102°17'0 0.4 1010.5 -10.1
2017-Oct-11 02:10N 70°28' W 102°18'0 1.2 1010.7 -10.0
2017-Oct-11 02:00N 70°28' W 102°17'0 0.3 1010.7 -10.0
2017-Oct-11 01:20N 70°28' W 102°18'0 0.0 1010.9 -9.8
2017-Oct-11 01:10N 70°28' W 102°18'0 1.2 1010.9 -9.8
2017-Oct-11 01:00N 70°28' W 102°19'0 2.4 1010.9 -9.6
2017-Oct-11 00:50N 70°28' W 102°17'0 0.0 1010.9 -9.6
2017-Oct-11 00:30N 70°28' W 102°17'1 5.1 1010.9 -9.3
2017-Oct-11 00:20N 70°28' W 102°19'1 1.1 1010.9 -9.3
2017-Oct-10 23:40N 70°28' W 102°18'0 1.2 1011.0 -9.0
2017-Oct-10 23:30N 70°28' W 102°17'0 1.2 1011.0 -9.0
2017-Oct-10 23:20N 70°28' W 102°18'0 0.0 1011.0 -8.9
2017-Oct-10 23:10N 70°28' W 102°18'0 0.0 1011.0
2017-Oct-10 22:50N 70°28' W 102°18'0 1.2 1011.0 -8.7
2017-Oct-10 22:40N 70°28' W 102°17'0 0.3 1011.0 -8.6
2017-Oct-10 22:00N 70°28' W 102°18'0 0.0 1011.0 -8.3
2017-Oct-10 21:50N 70°28' W 102°18'0 1.2 1010.9 -8.2
2017-Oct-10 21:40N 70°28' W 102°17'0 1.2 1011.0 -8.2
2017-Oct-10 21:30N 70°28' W 102°18'0 0.6 1011.0 -8.2
2017-Oct-10 21:10N 70°28' W 102°17'0 1.2 1010.9 -8.0
2017-Oct-10 21:00N 70°28' W 102°18'0 0.0 1010.9 -7.7
2017-Oct-10 20:20N 70°28' W 102°18'0 0.0 1010.9 -7.3
2017-Oct-10 20:10N 70°28' W 102°18'0 1.2 1010.9 -7.2
2017-Oct-10 20:00N 70°28' W 102°19'0 1.2 1010.9 -7.2
2017-Oct-10 19:50N 70°28' W 102°18'0 0.6 1010.9 -7.2
2017-Oct-10 19:30N 70°28' W 102°19'0 0.0 1010.9 -6.9
2017-Oct-10 19:20N 70°28' W 102°19'0 0.3 1010.7 -6.6
2017-Oct-10 18:40N 70°28' W 102°18'0 0.0 1010.6 -5.9
2017-Oct-10 18:30N 70°28' W 102°18'0 0.0 1010.6 -6.1
2017-Oct-10 18:20N 70°28' W 102°18'0 1.2 1010.6 -6.1
2017-Oct-10 18:10N 70°28' W 102°17'0 0.6 1010.6 -6.1
2017-Oct-10 17:50N 70°28' W 102°18'0 0.0 1010.5 -6.2
2017-Oct-10 17:40N 70°28' W 102°18'0 0.0 1010.5 -6.2
2017-Oct-10 17:00N 70°28' W 102°18'0 0.0 1010.6 -6.3
2017-Oct-10 16:50N 70°28' W 102°18'0 0.0 1010.6 -6.3
2017-Oct-10 16:40N 70°28' W 102°18'0 1.2 1010.6 -6.3
2017-Oct-10 16:30N 70°28' W 102°17'0 1.2 1010.7 -6.4
2017-Oct-10 16:20N 70°28' W 102°18'0 0.0 1010.6 -6.3
2017-Oct-10 16:10N 70°28' W 102°18'0 0.0 1010.6 -6.3
2017-Oct-10 16:00N 70°28' W 102°18'0 0.0 1010.6 -6.3
2017-Oct-10 15:20N 70°28' W 102°18'0 0.0 1010.6 -6.2
2017-Oct-10 15:10N 70°28' W 102°18'0 0.0 1010.6 -6.2
2017-Oct-10 15:00N 70°28' W 102°18'0 0.0 1010.5 -6.2
2017-Oct-10 14:50N 70°28' W 102°18'0 0.0 1010.5 -6.2
2017-Oct-10 14:40N 70°28' W 102°18'0 0.0 1010.5 -6.3
2017-Oct-10 14:30N 70°28' W 102°18'0 0.0 1010.5 -6.3
2017-Oct-10 13:40N 70°28' W 102°18'0 0.0 1010.7
2017-Oct-10 13:30N 70°28' W 102°18'0 0.0 1010.7 -6.2
2017-Oct-10 13:20N 70°28' W 102°18'0 0.0 1010.7 -6.3
2017-Oct-10 13:10N 70°28' W 102°18'0 0.0 1010.7 -6.3
2017-Oct-10 13:00N 70°28' W 102°18'0 0.0 1010.9 -6.3
2017-Oct-10 12:50N 70°28' W 102°18'0 0.0 1010.9 -6.3
2017-Oct-10 12:40N 70°28' W 102°18'0 0.0 1011.0 -6.3
2017-Oct-10 12:00N 70°28' W 102°18'0 0.0 1011.1 -6.5
2017-Oct-10 11:50N 70°28' W 102°18'0 0.0 1011.1 -6.5
2017-Oct-10 11:40N 70°28' W 102°18'0 0.0 1011.3 -6.6
2017-Oct-10 11:30N 70°28' W 102°18'0 0.0 1011.3 -6.8
2017-Oct-10 11:20N 70°28' W 102°18'0 0.0 1011.3
2017-Oct-10 11:10N 70°28' W 102°18'0 0.0 1011.4 -6.9
2017-Oct-10 10:10N 70°28' W 102°18'0 0.0 1011.6 -6.9
2017-Oct-10 10:00N 70°28' W 102°18'0 0.0 1011.6 -6.9
2017-Oct-10 09:50N 70°28' W 102°18'0 0.0 1011.7 -6.7
2017-Oct-10 09:40N 70°28' W 102°18'0 0.0 1011.7 -6.7
2017-Oct-10 08:30N 70°28' W 102°18'0 0.0 1011.8 -6.7
2017-Oct-10 08:20N 70°28' W 102°18'0 0.0 1011.8 -6.7
2017-Oct-10 08:10N 70°28' W 102°18'0 0.0 1011.8 -6.7
2017-Oct-10 08:00N 70°28' W 102°18'0 0.4 1011.8 -6.7
2017-Oct-10 07:30N 70°28' W 102°19'0 0.0 1011.8 -6.8
2017-Oct-10 07:20N 70°28' W 102°19'0 0.3 1011.8 -6.8
2017-Oct-10 06:40N 70°28' W 102°18'0 0.0 1011.8 -6.9
2017-Oct-10 06:30N 70°28' W 102°18'0 0.0 1011.8 -6.9
2017-Oct-10 06:20N 70°28' W 102°18'0 0.0 1011.8 -6.8
2017-Oct-10 05:50N 70°28' W 102°18'0 0.0 1011.8 -6.5
2017-Oct-10 05:40N 70°28' W 102°18'0 0.0 1011.8
2017-Oct-10 05:00N 70°28' W 102°18'0 0.0 1011.8 -6.2
2017-Oct-10 04:50N 70°28' W 102°18'0 0.0 1011.8 -6.2
2017-Oct-10 04:40N 70°28' W 102°18'0 1.2 1011.8 -6.2
2017-Oct-10 04:30N 70°28' W 102°19'0 0.6 1011.8 -6.2
2017-Oct-10 04:10N 70°28' W 102°18'0 1.2 1011.8 -6.3
2017-Oct-10 04:00N 70°28' W 102°17'0 0.0 1011.8 -6.3
2017-Oct-10 03:20N 70°28' W 102°17'0 0.0 1012.0 -6.6
2017-Oct-10 03:10N 70°28' W 102°17'0 0.0 1012.0 -6.7
2017-Oct-10 02:50N 70°28' W 102°17'0 0.6 1012.0 -6.9
2017-Oct-10 02:30N 70°28' W 102°18'0 0.0 -7.0
2017-Oct-10 02:20N 70°28' W 102°18'0 0.0 1012.0 -7.0
2017-Oct-10 01:40N 70°28' W 102°18'1 3.8 1012.1 -7.2
2017-Oct-10 01:30N 70°28' W 102°19'1 2.2 1012.1 -7.2
2017-Oct-10 01:10N 70°28' W 102°17'0 1.2 1012.1 -7.3
2017-Oct-10 01:00N 70°28' W 102°18'0 0.0 1012.1 -7.3
2017-Oct-10 00:50N 70°28' W 102°18'0 1.2 1012.1 -7.3
2017-Oct-10 00:40N 70°28' W 102°17'0 0.3 1012.2 -7.4
2017-Oct-10 00:00N 70°28' W 102°18'0 1.2 1012.2 -7.3
2017-Oct-09 23:50N 70°28' W 102°17'0 0.0 1012.4 -7.3
2017-Oct-09 23:40N 70°28' W 102°17'0 0.0 1012.4 -7.3
2017-Oct-09 23:30N 70°28' W 102°17'0 1.2 1012.4 -7.3
2017-Oct-09 23:20N 70°28' W 102°18'0 0.0 1012.4 -7.3
2017-Oct-09 23:10N 70°28' W 102°18'0 0.0 1012.4 -7.4
2017-Oct-09 23:00N 70°28' W 102°18'0 0.3 1012.5 -7.5
2017-Oct-09 22:20N 70°28' W 102°17'0 1.2 1012.5 -7.4
2017-Oct-09 22:10N 70°28' W 102°18'0 0.0 1012.4 -7.3
2017-Oct-09 22:00N 70°28' W 102°18'0 0.0 1012.4 -7.3
2017-Oct-09 21:50N 70°28' W 102°18'0 0.0 1012.5 -7.0
2017-Oct-09 21:40N 70°28' W 102°18'0 0.0 1012.4 -6.9
2017-Oct-09 21:30N 70°28' W 102°18'0 0.0 1012.4 -6.9
2017-Oct-09 21:20N 70°28' W 102°18'0 0.3 1012.4 -6.8
2017-Oct-09 20:40N 70°28' W 102°17'1 4.3
2017-Oct-09 20:30N 70°28' W 102°19'1 4.3 1012.4 -7.2
2017-Oct-09 20:20N 70°28' W 102°17'0 0.0 1012.4 -7.2
2017-Oct-09 20:10N 70°28' W 102°17'0 1.2 1012.4 -7.3
2017-Oct-09 20:00N 70°28' W 102°18'0 0.0 1012.4
2017-Oct-09 19:50N 70°28' W 102°18'0 0.0 1012.4 -7.5
2017-Oct-09 19:00N 70°28' W 102°18'0 0.0 1012.4 -8.8
2017-Oct-09 18:50N 70°28' W 102°18'0 0.0 1012.4 -8.9
2017-Oct-09 18:40N 70°28' W 102°18'0 0.0 1012.4 -8.8
2017-Oct-09 18:30N 70°28' W 102°18'0 0.0 1012.4 -9.0
2017-Oct-09 18:20N 70°28' W 102°18'0 0.0 1012.2 -9.0
2017-Oct-09 18:10N 70°28' W 102°18'0 0.0 1012.2 -9.0
2017-Oct-09 18:00N 70°28' W 102°18'0 0.0 1012.2 -9.2
2017-Oct-09 17:20N 70°28' W 102°18'0 0.0 1012.1 -9.2
2017-Oct-09 17:10N 70°28' W 102°18'0 0.0 1012.1 -9.1
2017-Oct-09 17:00N 70°28' W 102°18'0 0.0 1012.1 -9.1
2017-Oct-09 16:50N 70°28' W 102°18'0 1.2 1012.0 -9.1
2017-Oct-09 16:40N 70°28' W 102°17'0 0.0 1012.0 -9.1
2017-Oct-09 16:30N 70°28' W 102°17'0 0.2 1012.0 -9.1
2017-Oct-09 15:40N 70°28' W 102°18'0 0.0 1012.0 -9.3
2017-Oct-09 15:30N 70°28' W 102°18'0 1.2 1012.0 -9.5
2017-Oct-09 15:20N 70°28' W 102°17'0 1.2 1012.0 -9.5
2017-Oct-09 15:10N 70°28' W 102°18'0 1.2 1012.0 -9.6
2017-Oct-09 15:00N 70°28' W 102°17'0 0.0 1012.0
2017-Oct-09 14:50N 70°28' W 102°17'0 0.0 1012.0 -9.9
2017-Oct-09 14:00N 70°28' W 102°17'0 1.2 1012.0 -10.1
2017-Oct-09 13:50N 70°28' W 102°18'0 0.0 1012.0 -10.1
2017-Oct-09 13:40N 70°28' W 102°18'0 0.0 1012.0 -10.1
2017-Oct-09 13:30N 70°28' W 102°18'0 1.2 1012.0 -9.9
2017-Oct-09 13:20N 70°28' W 102°19'0 0.0 1012.0
2017-Oct-09 12:10N 70°28' W 102°19'0 1.2 1012.1 -9.5
2017-Oct-09 12:00N 70°28' W 102°19'1 3.6 1012.1 -9.5
2017-Oct-09 11:50N 70°28' W 102°17'0 1.2 1012.2 -9.4
2017-Oct-09 11:40N 70°28' W 102°18'0 0.0 1012.2 -9.4
2017-Oct-09 11:30N 70°28' W 102°18'0 0.0 1012.2 -9.3
2017-Oct-09 10:30N 70°28' W 102°18'0 0.0 1012.1 -9.1
2017-Oct-09 10:20N 70°28' W 102°18'0 0.0 1012.1 -9.1
2017-Oct-09 10:10N 70°28' W 102°18'0 0.0 1012.1 -9.1
2017-Oct-09 10:00N 70°28' W 102°18'0 0.0 1012.2 -9.1
2017-Oct-09 09:50N 70°28' W 102°18'0 0.0 1012.2 -9.1
2017-Oct-09 08:40N 70°28' W 102°18'0 0.0 1012.4 -9.1
2017-Oct-09 08:30N 70°28' W 102°18'0 0.3 1012.4 -9.1
2017-Oct-09 07:50N 70°28' W 102°17'0 0.0 1012.2 -8.9
2017-Oct-09 07:00N 70°28' W 102°17'0 0.0 1012.5 -8.9
2017-Oct-09 06:50N 70°28' W 102°17'0 0.3 1012.5 -8.9
2017-Oct-09 06:10N 70°28' W 102°18'0 0.0 1012.4 -8.9
2017-Oct-09 06:00N 70°28' W 102°18'0 0.3 1012.4 -8.9
2017-Oct-09 05:20N 70°28' W 102°17'0 0.0 1012.4
2017-Oct-09 04:50N 70°28' W 102°17'0 1.2 1012.5 -8.7
2017-Oct-09 04:40N 70°28' W 102°18'0 0.0 1012.5 -8.7
2017-Oct-09 04:30N 70°28' W 102°18'0 0.0 1012.4 -8.8
2017-Oct-09 04:20N 70°28' W 102°18'0 0.0 1012.4 -8.8
2017-Oct-09 03:40N 70°28' W 102°18'0 0.0 1012.4 -8.5
2017-Oct-09 03:30N 70°28' W 102°18'0 0.0 1012.4 -8.5
2017-Oct-09 03:10N 70°28' W 102°18'0 1.2 1012.5 -8.3
2017-Oct-09 03:00N 70°28' W 102°17'0 0.0 1012.5 -8.2
2017-Oct-09 02:50N 70°28' W 102°17'0 0.0 1012.6 -8.0
2017-Oct-09 02:40N 70°28' W 102°17'0 0.4 1012.6 -8.0
2017-Oct-09 02:10N 70°28' W 102°18'0 0.0 1012.6 -7.6
2017-Oct-09 02:00N 70°28' W 102°18'0 1.2 1012.6 -7.6
2017-Oct-09 01:50N 70°28' W 102°19'0 0.0 1012.6 -7.6
2017-Oct-09 01:40N 70°28' W 102°19'0 1.2 1012.6 -7.6
2017-Oct-09 01:30N 70°28' W 102°18'0 0.0 1012.8 -7.5
2017-Oct-09 01:20N 70°28' W 102°18'0 0.0 1012.8 -7.7
2017-Oct-09 01:10N 70°28' W 102°18'0 0.0 1012.8 -7.7
2017-Oct-09 01:00N 70°28' W 102°18'0 0.0 1012.8 -7.6
2017-Oct-09 00:30N 70°28' W 102°18'0 0.0 1012.9 -7.3
2017-Oct-09 00:20N 70°28' W 102°18'0 0.0 1012.9 -7.1
2017-Oct-09 00:10N 70°28' W 102°18'0 0.0 1012.9 -7.1
2017-Oct-09 00:00N 70°28' W 102°18'0 0.0 1013.1 -7.0
2017-Oct-08 23:50N 70°28' W 102°18'0 0.0 1013.1 -7.0
2017-Oct-08 23:40N 70°28' W 102°18'1 3.6 1013.1 -7.0
2017-Oct-08 23:30N 70°28' W 102°18'0 0.0 1013.1 -6.9
2017-Oct-08 23:20N 70°28' W 102°18'1 0.9 1013.1 -6.8
2017-Oct-08 22:40N 70°28' W 102°17'0 1.2 1013.1
2017-Oct-08 22:30N 70°28' W 102°18'0 0.0 1013.1 -6.7
2017-Oct-08 22:20N 70°28' W 102°18'0 0.0 1013.1 -6.7
2017-Oct-08 22:10N 70°28' W 102°18'0 0.0 1013.1 -6.7
2017-Oct-08 22:00N 70°28' W 102°18'0 0.0 1013.1 -6.8
2017-Oct-08 21:50N 70°28' W 102°18'0 0.0 1013.2 -6.6
2017-Oct-08 21:40N 70°28' W 102°18'0 0.3 1013.2 -6.6
2017-Oct-08 21:00N 70°28' W 102°17'0 1.2 1013.2
2017-Oct-08 20:50N 70°28' W 102°17'0 0.0 1013.2
2017-Oct-08 20:40N 70°28' W 102°17'0 2.4 1013.3 -6.2
2017-Oct-08 20:30N 70°28' W 102°18'0 0.0 1013.3 -6.2
2017-Oct-08 20:20N 70°28' W 102°18'0 0.0 1013.3 -6.2
2017-Oct-08 20:00N 70°28' W 102°18'0 0.3 1013.2
2017-Oct-08 19:20N 70°28' W 102°17'0 0.6 1013.2 -5.9
2017-Oct-08 19:00N 70°28' W 102°18'0 0.0 1013.2 -6.0
2017-Oct-08 18:50N 70°28' W 102°18'0 0.0 1013.2
2017-Oct-08 18:40N 70°28' W 102°18'0 1.2 1013.2 -6.1
2017-Oct-08 18:30N 70°28' W 102°17'0 0.2 1013.2 -6.1
2017-Oct-08 17:40N 70°28' W 102°18'0 0.0 -6.4
2017-Oct-08 17:30N 70°28' W 102°18'0 0.0 1013.2 -6.4
2017-Oct-08 17:20N 70°28' W 102°18'0 0.0 1013.2 -6.7
2017-Oct-08 17:10N 70°28' W 102°18'0 0.0 1013.2 -6.7
2017-Oct-08 17:00N 70°28' W 102°18'0 0.0 1013.3 -7.0
2017-Oct-08 16:50N 70°28' W 102°18'0 0.0 1013.2 -7.4
2017-Oct-08 16:00N 70°28' W 102°18'0 1.2 1013.3 -7.8
2017-Oct-08 15:50N 70°28' W 102°17'0 0.0 1013.3 -7.7
2017-Oct-08 15:40N 70°28' W 102°17'0 1.2 1013.3 -7.5
2017-Oct-08 15:30N 70°28' W 102°18'0 0.0 1013.3 -7.3
2017-Oct-08 15:20N 70°28' W 102°18'0 0.0 1013.3 -7.3
2017-Oct-08 15:00N 70°28' W 102°18'0 0.3 1013.3 -7.5
2017-Oct-08 14:20N 70°28' W 102°17'0 1.2 1013.3 -7.7
2017-Oct-08 14:10N 70°28' W 102°18'0 0.0 1013.3 -7.8
2017-Oct-08 14:00N 70°28' W 102°18'0 0.0 1013.3 -8.0
2017-Oct-08 13:50N 70°28' W 102°18'0 0.0 1013.3 -8.0
2017-Oct-08 13:40N 70°28' W 102°18'0 0.0 1013.2 -8.1
2017-Oct-08 13:30N 70°28' W 102°18'0 0.0 1013.2 -8.3
2017-Oct-08 12:30N 70°28' W 102°18'0 1.2 1013.1 -8.0
2017-Oct-08 12:20N 70°28' W 102°17'0 0.0 1013.1 -8.1
2017-Oct-08 12:10N 70°28' W 102°17'0 0.0 1013.1 -8.1
2017-Oct-08 12:00N 70°28' W 102°17'0 0.0 1013.1 -8.4
2017-Oct-08 11:50N 70°28' W 102°17'0 0.0 1013.1 -8.4
2017-Oct-08 10:50N 70°28' W 102°17'0 1.2 1013.2 -9.0
2017-Oct-08 10:40N 70°28' W 102°18'0 1.2 1013.2
2017-Oct-08 10:30N 70°28' W 102°19'0 0.6 1013.2 -9.1
2017-Oct-08 10:10N 70°28' W 102°18'0 0.0 1013.2 -9.3
2017-Oct-08 09:10N 70°28' W 102°18'0 0.0 1013.3 -9.3
2017-Oct-08 09:00N 70°28' W 102°18'0 0.0 1013.3 -9.3
2017-Oct-08 08:50N 70°28' W 102°18'0 0.0 1013.3 -9.3
2017-Oct-08 08:40N 70°28' W 102°18'0 0.0 1013.3 -9.2
2017-Oct-08 08:10N 70°28' W 102°18'0 0.0 1013.3 -9.3
2017-Oct-08 07:30N 70°28' W 102°18'0 0.0 1013.2 -9.2
2017-Oct-08 07:20N 70°28' W 102°18'0 1.2 1013.2 -9.3
2017-Oct-08 07:10N 70°28' W 102°17'0 0.0 1013.2 -8.7
2017-Oct-08 07:00N 70°28' W 102°17'0 0.4 1013.2 -8.7
2017-Oct-08 06:30N 70°28' W 102°18'0 0.0 1013.1 -8.0
2017-Oct-08 06:20N 70°28' W 102°18'0 0.0 1013.1 -8.0
2017-Oct-08 06:00N 70°28' W 102°18'0 0.0 1013.1 -8.5
2017-Oct-08 05:50N 70°28' W 102°18'0 0.0 1013.1 -8.5
2017-Oct-08 05:40N 70°28' W 102°18'0 0.0 1013.1 -8.6
2017-Oct-08 05:10N 70°28' W 102°18'0 0.0 1013.1 -8.5
2017-Oct-08 05:00N 70°28' W 102°18'0 0.0
2017-Oct-08 04:50N 70°28' W 102°18'0 0.0 1012.9 -8.4
2017-Oct-08 04:40N 70°28' W 102°18'0 0.0 1012.9 -8.2
2017-Oct-08 04:20N 70°28' W 102°18'0 0.0 1012.9 -7.8
2017-Oct-08 04:10N 70°28' W 102°18'0 0.0 1012.9 -7.8
2017-Oct-08 04:00N 70°28' W 102°18'1 7.6 1012.9 -7.8
2017-Oct-08 03:50N 70°27' W 102°17'1 2.5 1012.9 -7.8
2017-Oct-08 03:20N 70°28' W 102°18'0 0.0 1012.8 -8.3
2017-Oct-08 03:10N 70°28' W 102°18'0 1.2 1012.8 -8.3
2017-Oct-08 03:00N 70°28' W 102°17'0 0.6 1012.8 -8.5
2017-Oct-08 02:40N 70°28' W 102°18'0 0.0 1012.8 -8.8
2017-Oct-08 02:30N 70°28' W 102°18'0 0.0 1012.8 -8.8
2017-Oct-08 02:20N 70°28' W 102°18'0 0.0 1012.8
2017-Oct-08 02:10N 70°28' W 102°18'0 0.0 1012.8 -8.9
2017-Oct-08 01:50N 70°28' W 102°18'0 0.0 1012.5 -9.0
2017-Oct-08 01:40N 70°28' W 102°18'0 0.0 1012.5 -9.3
2017-Oct-08 01:30N 70°28' W 102°18'0 0.0 1012.5 -9.1
2017-Oct-08 01:20N 70°28' W 102°18'0 0.0 1012.5 -9.1
2017-Oct-08 01:00N 70°28' W 102°18'0 0.0 1012.5 -8.5
2017-Oct-08 00:50N 70°28' W 102°18'0 0.0 1012.5 -8.5
2017-Oct-08 00:40N 70°28' W 102°18'0 1.2 1012.4 -8.1
2017-Oct-08 00:30N 70°28' W 102°19'0 0.6 1012.4 -8.1
2017-Oct-08 00:10N 70°28' W 102°19'0 2.4 1012.2 -7.8
2017-Oct-08 00:00N 70°28' W 102°18'0 0.0 -7.7
2017-Oct-07 23:50N 70°28' W 102°18'0 1.2 1012.1 -7.5
2017-Oct-07 23:40N 70°28' W 102°17'0 0.6 1012.1 -7.5
2017-Oct-07 23:20N 70°28' W 102°18'0 0.0 1012.0 -6.5
2017-Oct-07 23:10N 70°28' W 102°18'0 0.0 1012.0 -6.5
2017-Oct-07 23:00N 70°28' W 102°18'0 0.0 1012.0 -6.1
2017-Oct-07 22:50N 70°28' W 102°18'0 0.6 1012.0 -5.6
2017-Oct-07 22:30N 70°28' W 102°17'0 1.2 1011.8 -4.4
2017-Oct-07 22:20N 70°28' W 102°18'0 0.0 1011.7 -4.4
2017-Oct-07 22:10N 70°28' W 102°18'0 0.0 1011.7 -4.4
2017-Oct-07 22:00N 70°28' W 102°18'0 0.0 1011.7 -4.9
2017-Oct-07 21:30N 70°28' W 102°18'1 3.8 1011.6 -4.4
2017-Oct-07 21:20N 70°28' W 102°17'1 3.6 1011.4 -4.2
2017-Oct-07 21:10N 70°28' W 102°17'0 0.0 1011.4 -4.2
2017-Oct-07 20:50N 70°28' W 102°17'0 1.2 1011.3 -4.4
2017-Oct-07 20:40N 70°28' W 102°18'0 0.0 1011.1 -4.6
2017-Oct-07 20:30N 70°28' W 102°18'0 0.0 1011.1 -4.6
2017-Oct-07 19:40N 70°28' W 102°18'1 1.2 1011.0 -4.6
2017-Oct-07 19:10N 70°28' W 102°18'1 3.6 1010.9 -5.5
2017-Oct-07 19:00N 70°28' W 102°18'0 0.0 1010.7 -5.5
2017-Oct-07 18:50N 70°28' W 102°18'0 0.3 1010.7 -5.5
2017-Oct-07 18:10N 70°28' W 102°17'0 1.2 1010.6 -5.6
2017-Oct-07 18:00N 70°28' W 102°18'0 0.0 1010.6 -5.7
2017-Oct-07 17:50N 70°28' W 102°18'0 0.0 1010.6 -5.7
2017-Oct-07 17:30N 70°28' W 102°18'0 0.0 1010.5 -5.4
2017-Oct-07 17:20N 70°28' W 102°18'0 1.2 1010.3 -5.6
2017-Oct-07 17:10N 70°28' W 102°17'0 1.2 1010.3 -5.8
2017-Oct-07 17:00N 70°28' W 102°18'0 0.0 1010.3 -5.7
2017-Oct-07 16:20N 70°28' W 102°18'0 1.2 1010.0 -6.4
2017-Oct-07 16:10N 70°28' W 102°19'0 0.6 1010.0 -6.4
2017-Oct-07 15:50N 70°28' W 102°18'0 0.0 1009.9 -6.9
2017-Oct-07 15:40N 70°28' W 102°18'0 1.2 1009.8 -7.0
2017-Oct-07 15:30N 70°28' W 102°19'0 0.0 1009.8 -7.1
2017-Oct-07 15:20N 70°28' W 102°19'0 0.3 1009.8 -7.1
2017-Oct-07 14:40N 70°28' W 102°18'0 0.0 1009.5 -7.6
2017-Oct-07 14:10N 70°28' W 102°18'0 0.0 1009.4 -7.7
2017-Oct-07 14:00N 70°28' W 102°18'0 1.2 1009.4 -7.8
2017-Oct-07 13:50N 70°28' W 102°19'0 1.2 1009.4 -7.8
2017-Oct-07 13:40N 70°28' W 102°18'0 0.0 1009.4 -7.8
2017-Oct-07 13:00N 70°28' W 102°18'0 1.2 1009.1 -7.5
2017-Oct-07 12:50N 70°28' W 102°17'0 0.0 1009.1 -7.5
2017-Oct-07 12:30N 70°28' W 102°17'0 1.2 1009.0 -7.3
2017-Oct-07 12:20N 70°28' W 102°18'0 0.0 1009.0 -7.1
2017-Oct-07 12:10N 70°28' W 102°18'0 2.4 1009.0 -7.0
2017-Oct-07 12:00N 70°28' W 102°17'0 0.0 -6.9
2017-Oct-07 11:20N 70°28' W 102°17'0 2.4 1009.0 -6.9
2017-Oct-07 11:10N 70°28' W 102°18'0 0.0 1009.0 -6.9
2017-Oct-07 10:50N 70°28' W 102°18'0 0.0 1008.8 -6.5
2017-Oct-07 10:40N 70°28' W 102°18'0 0.6 1008.8 -6.5
2017-Oct-07 10:20N 70°28' W 102°19'0 0.3 1008.5 -6.0
2017-Oct-07 09:40N 70°28' W 102°18'0 0.0 1008.4 -5.8
2017-Oct-07 09:00N 70°28' W 102°18'0 0.0 1008.1 -5.4
2017-Oct-07 08:00N 70°28' W 102°18'0 0.3 1007.9 -5.1
2017-Oct-07 07:20N 70°28' W 102°17'0 0.4 1007.9 -5.1
2017-Oct-07 06:50N 70°28' W 102°18'0 0.0 1007.7 -5.2
2017-Oct-07 06:30N 70°28' W 102°18'0 0.0 1007.9 -5.2
2017-Oct-07 06:20N 70°28' W 102°18'0 0.0 1007.9 -5.2
2017-Oct-07 06:00N 70°28' W 102°18'0 0.0 1007.7 -5.3
2017-Oct-07 05:30N 70°28' W 102°18'0 0.0 1007.6 -5.4
2017-Oct-07 05:10N 70°28' W 102°18'0 0.0 1007.4
2017-Oct-07 05:00N 70°28' W 102°18'0 0.0 1007.4 -5.3
2017-Oct-07 04:50N 70°28' W 102°18'0 0.0 1007.4 -5.4
2017-Oct-07 04:40N 70°28' W 102°18'0 0.0 1007.4 -5.4
2017-Oct-07 04:20N 70°28' W 102°18'0 0.0 1007.4
2017-Oct-07 04:10N 70°28' W 102°18'0 0.0 1007.4 -5.5
2017-Oct-07 03:50N 70°28' W 102°18'0 0.0 1007.2 -5.7
2017-Oct-07 03:30N 70°28' W 102°18'0 0.0 1007.2 -5.6
2017-Oct-07 03:20N 70°28' W 102°18'0 0.0 1007.2 -5.6
2017-Oct-07 03:10N 70°28' W 102°18'0 0.0 1007.0 -5.5
2017-Oct-07 03:00N 70°28' W 102°18'0 0.0 1007.0 -5.4
2017-Oct-07 02:40N 70°28' W 102°18'0 0.0 1007.0 -5.3
2017-Oct-07 02:30N 70°28' W 102°18'0 0.0 1007.0 -5.3
2017-Oct-07 02:10N 70°28' W 102°18'0 2.4 1007.0 -5.0
2017-Oct-07 02:00N 70°28' W 102°17'0 2.4 1007.0 -4.9
2017-Oct-07 01:50N 70°28' W 102°18'0 0.0 1006.9 -4.9
2017-Oct-07 01:40N 70°28' W 102°18'0 0.0 1006.9 -4.9
2017-Oct-07 01:30N 70°28' W 102°18'   1006.9
Track history (hours):
 
Tides and Currents Weather Stations Pressure Air Temp Water Temp Dewpoint Dewpoint Depression Visibility Wind Speed Wind Dir Waves Ship Positions

Drifting buoy 48507

Last reported at 2017-Oct-17 01:30 UTC. Time now 2017-Oct-17 02:18 UTC.
Position N 70°28' W 102°18'.

Barometer 1005.1 mb
Air temperature -12.4 ° C

Date/timePositionNaut miles runAvg speedWind from/ knotsBaromVisibWave heightAir tempDewpointWater temp
2017-Oct-17 01:30N 70°28' W 102°18'0 0.0 1005.1 -12.4
2017-Oct-17 01:20N 70°28' W 102°18'0 0.0 1005.1 -12.4
2017-Oct-17 01:10N 70°28' W 102°18'0 0.0 1005.1 -13.0
2017-Oct-17 00:50N 70°28' W 102°18'0 0.0 1005.0 -12.3
2017-Oct-17 00:10N 70°28' W 102°18'0 0.0 1005.0 -12.0
2017-Oct-17 00:00N 70°28' W 102°18'0 0.0 1005.0 -12.0
2017-Oct-16 23:50N 70°28' W 102°18'0 0.0 1005.0 -12.4
2017-Oct-16 23:40N 70°28' W 102°18'0 0.0 1004.8 -12.6
2017-Oct-16 23:30N 70°28' W 102°18'0 0.0 1004.8 -12.6
2017-Oct-16 23:20N 70°28' W 102°18'0 0.0 1005.0 -12.8
2017-Oct-16 23:10N 70°28' W 102°18'0 0.0 1005.0 -12.8
2017-Oct-16 22:30N 70°28' W 102°18'0 0.0 1004.8 -12.8
2017-Oct-16 22:20N 70°28' W 102°18'0 0.0 1004.8 -12.8
2017-Oct-16 22:10N 70°28' W 102°18'0 1.2 1004.8 -13.0
2017-Oct-16 22:00N 70°28' W 102°19'0 1.2 1004.8 -13.0
2017-Oct-16 21:50N 70°28' W 102°18'0 0.6 1004.7 -13.3
2017-Oct-16 21:30N 70°28' W 102°17'0 0.0 1004.6 -13.7
2017-Oct-16 20:50N 70°28' W 102°17'0 1.2 1004.4 -13.5
2017-Oct-16 20:40N 70°28' W 102°18'0 0.0 1004.3 -13.4
2017-Oct-16 20:30N 70°28' W 102°18'0 0.0 1004.3 -13.4
2017-Oct-16 20:20N 70°28' W 102°18'0 0.6 1004.4 -13.4
2017-Oct-16 20:00N 70°28' W 102°19'0 2.4 1004.3 -13.2
2017-Oct-16 19:50N 70°28' W 102°17'0 0.0 1004.3 -13.4
2017-Oct-16 19:10N 70°28' W 102°17'0 1.2 1004.3 -14.1
2017-Oct-16 19:00N 70°28' W 102°18'1 3.8 1004.3 -14.1
2017-Oct-16 18:50N 70°28' W 102°17'1 3.8 1004.3 -14.7
2017-Oct-16 18:40N 70°28' W 102°18'0 0.0 1004.3 -14.7
2017-Oct-16 18:30N 70°28' W 102°18'0 2.4 1004.3 -15.3
2017-Oct-16 18:20N 70°28' W 102°17'0 2.4 1004.3 -16.2
2017-Oct-16 18:10N 70°28' W 102°18'0 0.0 1004.3 -16.6
2017-Oct-16 17:30N 70°28' W 102°18'0 0.0 1004.4 -18.1
2017-Oct-16 17:20N 70°28' W 102°18'0 0.0 1004.4 -18.1
2017-Oct-16 17:10N 70°28' W 102°18'0 0.0 1004.4 -18.9
2017-Oct-16 17:00N 70°28' W 102°18'0 0.0 1004.4 -18.9
2017-Oct-16 16:40N 70°28' W 102°18'0 2.4 1004.4 -20.5
2017-Oct-16 16:30N 70°28' W 102°19'0 0.5 1004.4 -20.6
2017-Oct-16 15:40N 70°28' W 102°18'0 1.2 1004.2 -21.4
2017-Oct-16 15:30N 70°28' W 102°17'0 2.4 1004.2 -21.8
2017-Oct-16 15:20N 70°28' W 102°19'0 2.4 1004.2 -21.8
2017-Oct-16 15:10N 70°28' W 102°17'0 1.2 1004.2 -22.1
2017-Oct-16 15:00N 70°28' W 102°18'0 1.2 1004.2 -22.3
2017-Oct-16 14:50N 70°28' W 102°17'0 0.0 1004.0 -22.6
2017-Oct-16 14:10N 70°28' W 102°17'0 1.2 1003.8 -22.7
2017-Oct-16 14:00N 70°28' W 102°18'0 0.0 1003.8 -22.7
2017-Oct-16 13:50N 70°28' W 102°18'0 0.0 1003.6 -22.9
2017-Oct-16 13:40N 70°28' W 102°18'0 0.6 1003.6 -22.9
2017-Oct-16 13:20N 70°28' W 102°17'0 2.4 1003.8 -23.2
2017-Oct-16 13:10N 70°28' W 102°19'0 0.0 1003.8 -23.2
2017-Oct-16 12:30N 70°28' W 102°19'0 0.0 1003.6 -22.8
2017-Oct-16 12:20N 70°28' W 102°19'0 0.0 1003.6 -22.8
2017-Oct-16 12:10N 70°28' W 102°19'0 0.0 -22.7
2017-Oct-16 12:00N 70°28' W 102°19'0 1.2 1003.5 -22.7
2017-Oct-16 11:50N 70°28' W 102°18'0 0.0 1003.5 -22.6
2017-Oct-16 11:40N 70°28' W 102°18'0 0.0 1003.3 -22.3
2017-Oct-16 11:30N 70°28' W 102°18'0 0.0 1003.3 -22.3
2017-Oct-16 10:50N 70°28' W 102°18'0 0.0 1003.1 -22.2
2017-Oct-16 10:40N 70°28' W 102°18'0 0.0 1002.9 -22.2
2017-Oct-16 10:20N 70°28' W 102°18'0 0.0 1002.9 -22.3
2017-Oct-16 10:10N 70°28' W 102°18'0 0.0 1002.9 -22.3
2017-Oct-16 10:00N 70°28' W 102°18'0 0.0 1002.8 -22.1
2017-Oct-16 09:00N 70°28' W 102°18'0 0.0 1002.7 -22.0
2017-Oct-16 08:50N 70°28' W 102°18'0 0.0 1002.8 -22.0
2017-Oct-16 08:20N 70°28' W 102°18'0 0.0 1002.7 -21.8
2017-Oct-16 08:10N 70°28' W 102°18'0 0.0 1002.7 -21.8
2017-Oct-16 07:20N 70°28' W 102°18'0 0.0 1002.7 -20.9
2017-Oct-16 07:10N 70°28' W 102°18'0 0.0 1002.7 -20.9
2017-Oct-16 07:00N 70°28' W 102°18'0 0.0 1002.7 -20.5
2017-Oct-16 06:40N 70°28' W 102°18'0 0.0 1002.7 -19.9
2017-Oct-16 06:10N 70°28' W 102°18'0 0.0 1002.7 -18.4
2017-Oct-16 05:20N 70°28' W 102°18'0 0.0 1002.7 -16.3
2017-Oct-16 05:10N 70°28' W 102°18'0 0.0 1002.7 -15.8
2017-Oct-16 05:00N 70°28' W 102°18'0 0.0 1002.7 -15.8
2017-Oct-16 04:30N 70°28' W 102°18'0 0.0 1002.7 -15.8
2017-Oct-16 03:40N 70°28' W 102°18'0 0.0 1002.8 -15.8
2017-Oct-16 03:30N 70°28' W 102°18'0 0.0 1002.9 -15.8
2017-Oct-16 03:20N 70°28' W 102°18'0 0.6 1002.9 -15.8
2017-Oct-16 03:00N 70°28' W 102°17'0 0.0 1002.9 -16.0
2017-Oct-16 02:50N 70°28' W 102°17'0 0.0 1002.9 -15.9
2017-Oct-16 02:00N 70°28' W 102°17'0 1.2 1002.9 -14.4
2017-Oct-16 01:50N 70°28' W 102°18'0 0.0 1003.1 -13.9
2017-Oct-16 01:40N 70°28' W 102°18'0 0.0 1003.1 -13.9
2017-Oct-16 01:30N 70°28' W 102°18'0 0.0 1003.1 -13.7
2017-Oct-16 01:20N 70°28' W 102°18'0 0.0 1003.1 -13.5
2017-Oct-16 01:10N 70°28' W 102°18'0 0.2 1003.2 -13.4
2017-Oct-16 00:20N 70°28' W 102°17'0 0.0 1003.3 -12.9
2017-Oct-16 00:10N 70°28' W 102°17'0 1.2 1003.3 -12.9
2017-Oct-16 00:00N 70°28' W 102°18'0 0.0 1003.3 -12.5
2017-Oct-15 23:50N 70°28' W 102°18'0 0.0 1003.3 -12.5
2017-Oct-15 23:30N 70°28' W 102°18'0 0.0 1003.5 -12.0
2017-Oct-15 22:40N 70°28' W 102°18'0 0.0 1003.6 -11.4
2017-Oct-15 22:30N 70°28' W 102°18'0 0.0 1003.6
2017-Oct-15 22:20N 70°28' W 102°18'0 0.0 1003.6 -11.1
2017-Oct-15 22:10N 70°28' W 102°18'0 0.0 1003.6 -11.1
2017-Oct-15 22:00N 70°28' W 102°18'0 1.2 1003.8 -10.9
2017-Oct-15 21:50N 70°28' W 102°17'0 0.0 1003.8
2017-Oct-15 21:00N 70°28' W 102°17'0 1.2 1003.8 -10.4
2017-Oct-15 20:50N 70°28' W 102°18'0 0.0 1003.8 -10.3
2017-Oct-15 20:40N 70°28' W 102°18'0 0.0 1003.8 -10.3
2017-Oct-15 20:30N 70°28' W 102°18'0 0.0 1003.8 -10.3
2017-Oct-15 20:20N 70°28' W 102°18'0 0.0 1003.8 -10.4
2017-Oct-15 20:10N 70°28' W 102°18'0 0.0 1003.8 -10.3
2017-Oct-15 19:20N 70°28' W 102°18'0 0.0
2017-Oct-15 19:10N 70°28' W 102°18'0 0.0 -10.4
2017-Oct-15 19:00N 70°28' W 102°18'0 0.0 1003.9 -10.4
2017-Oct-15 18:50N 70°28' W 102°18'0 0.0 1004.0 -10.5
2017-Oct-15 18:40N 70°28' W 102°18'0 0.0 1004.0 -10.7
2017-Oct-15 18:30N 70°28' W 102°18'0 0.0 1004.0 -10.7
2017-Oct-15 17:40N 70°28' W 102°18'0 0.0 1004.2 -11.4
2017-Oct-15 17:30N 70°28' W 102°18'0 1.2 1004.2 -11.4
2017-Oct-15 17:20N 70°28' W 102°17'0 0.0 1004.2 -11.5
2017-Oct-15 17:10N 70°28' W 102°17'0 1.2 1004.2 -11.5
2017-Oct-15 17:00N 70°28' W 102°18'0 0.0 1004.3 -11.7
2017-Oct-15 16:50N 70°28' W 102°18'0 0.0 1004.3 -11.7
2017-Oct-15 16:00N 70°28' W 102°18'0 1.2 1004.7 -12.3
2017-Oct-15 15:50N 70°28' W 102°19'0 0.0 1004.7 -12.3
2017-Oct-15 15:40N 70°28' W 102°19'0 0.0 1004.7 -12.4
2017-Oct-15 15:30N 70°28' W 102°19'0 0.6 1004.7 -12.4
2017-Oct-15 15:10N 70°28' W 102°18'0 0.0 1005.0 -12.5
2017-Oct-15 14:20N 70°28' W 102°18'0 0.0 1005.3 -12.4
2017-Oct-15 14:10N 70°28' W 102°18'0 0.0 1005.3 -12.4
2017-Oct-15 14:00N 70°28' W 102°18'0 1.2 1005.3 -12.5
2017-Oct-15 13:50N 70°28' W 102°17'0 0.0 1005.3 -12.5
2017-Oct-15 13:40N 70°28' W 102°17'0 0.0 1005.3 -12.6
2017-Oct-15 13:30N 70°28' W 102°17'0 0.0 -12.6
2017-Oct-15 12:40N 70°28' W 102°17'0 1.2 1005.8 -13.0
2017-Oct-15 12:30N 70°28' W 102°18'0 0.0 1005.8 -13.1
2017-Oct-15 12:20N 70°28' W 102°18'0 0.0 1005.8 -13.2
2017-Oct-15 12:10N 70°28' W 102°18'0 0.0 1005.8 -13.2
2017-Oct-15 12:00N 70°28' W 102°18'0 0.0 1005.8 -13.3
2017-Oct-15 11:00N 70°28' W 102°18'0 1.2 1006.4 -14.4
2017-Oct-15 10:50N 70°28' W 102°19'0 1.2 1006.4 -14.4
2017-Oct-15 10:40N 70°28' W 102°18'0 0.0 1006.4 -14.6
2017-Oct-15 10:30N 70°28' W 102°18'0 0.0 1006.4 -15.3
2017-Oct-15 10:20N 70°28' W 102°18'0 0.0 1006.4 -15.3
2017-Oct-15 09:10N 70°28' W 102°18'0 0.0 1006.8 -16.8
2017-Oct-15 09:00N 70°28' W 102°18'0 0.0 1006.9
2017-Oct-15 08:50N 70°28' W 102°18'0 0.0 1006.9 -18.0
2017-Oct-15 08:40N 70°28' W 102°18'0 0.0 1006.9 -18.0
2017-Oct-15 07:30N 70°28' W 102°18'0 0.0 1007.3 -18.4
2017-Oct-15 07:20N 70°28' W 102°18'0 0.0 1007.3 -18.4
2017-Oct-15 07:10N 70°28' W 102°18'0 0.0 1007.3 -18.3
2017-Oct-15 05:40N 70°28' W 102°18'0 0.0 1007.9 -17.5
2017-Oct-15 05:30N 70°28' W 102°18'0 0.0 1007.9 -17.5
2017-Oct-15 05:20N 70°28' W 102°18'0 0.0 1008.0 -17.4
2017-Oct-15 05:10N 70°28' W 102°18'0 0.0 1008.0
2017-Oct-15 04:50N 70°28' W 102°18'0 0.0 1008.0
2017-Oct-15 04:00N 70°28' W 102°18'0 1.2 1008.3 -18.0
2017-Oct-15 03:50N 70°28' W 102°17'0 1.2 1008.4 -17.8
2017-Oct-15 03:40N 70°28' W 102°18'0 1.2 1008.4 -17.5
2017-Oct-15 03:30N 70°28' W 102°17'0 0.0 1008.4
2017-Oct-15 03:20N 70°28' W 102°17'0 1.2 1008.5 -17.2
2017-Oct-15 03:10N 70°28' W 102°18'0 0.0 1008.5 -17.0
2017-Oct-15 02:20N 70°28' W 102°18'0 0.0 1008.8 -16.4
2017-Oct-15 02:10N 70°28' W 102°18'0 0.0 1008.8 -16.1
2017-Oct-15 02:00N 70°28' W 102°18'0 0.0 1008.8 -16.1
2017-Oct-15 01:50N 70°28' W 102°18'0 0.0 1008.8 -15.9
2017-Oct-15 01:40N 70°28' W 102°18'0 0.0 1008.8 -15.8
2017-Oct-15 01:30N 70°28' W 102°18'0 0.0 1009.0 -15.8
2017-Oct-15 00:40N 70°28' W 102°18'1 3.8 1008.8 -14.4
2017-Oct-15 00:30N 70°28' W 102°17'1 3.8 1009.0 -14.2
2017-Oct-15 00:20N 70°28' W 102°18'0 0.0 1009.0
2017-Oct-15 00:10N 70°28' W 102°18'0 0.0 1009.1 -13.9
2017-Oct-15 00:00N 70°28' W 102°18'0 0.0 1009.1
2017-Oct-14 23:50N 70°28' W 102°18'0 0.0 1009.1
2017-Oct-14 23:00N 70°28' W 102°18'0 0.0 1009.0 -12.8
2017-Oct-14 22:50N 70°28' W 102°18'0 0.0 1009.0 -12.7
2017-Oct-14 22:40N 70°28' W 102°18'0 0.0 1009.0 -12.7
2017-Oct-14 22:30N 70°28' W 102°18'0 0.0 1009.0 -12.7
2017-Oct-14 22:20N 70°28' W 102°18'0 1.2 1009.0 -12.6
2017-Oct-14 22:10N 70°28' W 102°17'0 0.0 1009.0 -12.6
2017-Oct-14 21:10N 70°28' W 102°17'0 1.2 1009.0 -12.3
2017-Oct-14 21:00N 70°28' W 102°18'0 0.0 1009.0 -12.3
2017-Oct-14 20:50N 70°28' W 102°18'0 0.0 1009.1 -12.3
2017-Oct-14 20:40N 70°28' W 102°18'0 1.2 1009.1 -12.2
2017-Oct-14 20:30N 70°28' W 102°17'0 0.2 1009.1 -12.2
2017-Oct-14 19:30N 70°28' W 102°18'0 0.0 1009.2 -12.0
2017-Oct-14 19:20N 70°28' W 102°18'0 0.0 1009.1 -12.0
2017-Oct-14 19:10N 70°28' W 102°18'0 0.0 1009.2 -12.1
2017-Oct-14 19:00N 70°28' W 102°18'0 0.0 1009.2 -12.2
2017-Oct-14 18:50N 70°28' W 102°18'0 0.0
2017-Oct-14 18:10N 70°28' W 102°18'0 0.0 1009.1 -12.9
2017-Oct-14 18:00N 70°28' W 102°18'0 0.0 1009.1 -12.9
2017-Oct-14 17:50N 70°28' W 102°18'0 0.0 1009.1 -13.0
2017-Oct-14 17:40N 70°28' W 102°18'0 1.2 1009.1
2017-Oct-14 17:30N 70°28' W 102°17'0 1.2 1009.1 -13.2
2017-Oct-14 17:20N 70°28' W 102°18'0 1.2 1009.0 -13.2
2017-Oct-14 17:10N 70°28' W 102°17'0 0.2 1009.0
2017-Oct-14 16:10N 70°28' W 102°18'0 1.2 1009.1 -13.0
2017-Oct-14 16:00N 70°28' W 102°17'0 1.2 1009.1
2017-Oct-14 15:50N 70°28' W 102°18'0 0.0 1009.2 -12.9
2017-Oct-14 15:40N 70°28' W 102°18'0 0.0 1009.2 -12.9
2017-Oct-14 15:30N 70°28' W 102°18'0 0.0 1009.1 -12.9
2017-Oct-14 14:30N 70°28' W 102°18'0 1.2 1009.1 -12.8
2017-Oct-14 14:20N 70°28' W 102°17'0 2.4 1009.1 -12.8
2017-Oct-14 14:10N 70°28' W 102°19'0 0.0 1009.2 -12.6
2017-Oct-14 14:00N 70°28' W 102°19'0 1.2 1009.2 -12.6
2017-Oct-14 13:50N 70°28' W 102°18'0 0.0 1009.2 -12.6
2017-Oct-14 13:00N 70°28' W 102°18'0 0.0 1009.1 -12.2
2017-Oct-14 12:50N 70°28' W 102°18'0 1.2 1009.1 -12.2
2017-Oct-14 12:40N 70°28' W 102°17'0 0.0 1009.1 -12.2
2017-Oct-14 12:30N 70°28' W 102°17'0 0.0 -12.2
2017-Oct-14 12:20N 70°28' W 102°17'0 0.2 1009.2 -12.2
2017-Oct-14 11:10N 70°28' W 102°18'0 0.0 1009.2 -12.2
2017-Oct-14 11:00N 70°28' W 102°18'0 0.0 1009.4 -12.2
2017-Oct-14 10:50N 70°28' W 102°18'0 0.0 1009.4 -12.2
2017-Oct-14 10:40N 70°28' W 102°18'0 0.2 1009.5 -12.3
2017-Oct-14 09:30N 70°28' W 102°17'0 0.0 1009.6 -12.6
2017-Oct-14 09:20N 70°28' W 102°17'0 0.1 1009.6 -12.6
2017-Oct-14 07:50N 70°28' W 102°18'0 1.2 1009.9 -13.7
2017-Oct-14 07:40N 70°28' W 102°17'0 0.1 1009.9 -13.7
2017-Oct-14 06:10N 70°28' W 102°18'0 0.0 1010.2 -14.4
2017-Oct-14 06:00N 70°28' W 102°18'0 0.0 1010.2 -14.4
2017-Oct-14 05:30N 70°28' W 102°18'0 0.0 1010.3 -13.8
2017-Oct-14 05:10N 70°28' W 102°18'0 0.0 1010.3 -13.8
2017-Oct-14 04:30N 70°28' W 102°18'1 3.6 1010.6 -15.0
2017-Oct-14 04:20N 70°28' W 102°18'1 3.6 1010.7 -14.5
2017-Oct-14 04:10N 70°28' W 102°18'0 0.6 1010.7 -14.5
2017-Oct-14 03:50N 70°28' W 102°17'0 1.2 1011.1 -14.4
2017-Oct-14 03:40N 70°28' W 102°18'0 1.2 1011.1 -14.4
2017-Oct-14 03:30N 70°28' W 102°17'0 0.0 1011.3 -14.1
2017-Oct-14 02:50N 70°28' W 102°17'1 3.8 1011.6 -13.4
2017-Oct-14 02:40N 70°28' W 102°18'1 3.8 1011.7 -13.1
2017-Oct-14 02:30N 70°28' W 102°17'0 0.4 1011.7 -12.3
2017-Oct-14 02:00N 70°28' W 102°18'0 0.0 1012.1 -11.9
2017-Oct-14 01:50N 70°28' W 102°18'0 0.0 1012.1 -11.8
2017-Oct-14 01:10N 70°28' W 102°18'0 0.0 1012.5 -11.7
2017-Oct-14 01:00N 70°28' W 102°18'0 0.0 1012.5 -11.7
2017-Oct-14 00:50N 70°28' W 102°18'1 4.3 1012.5 -11.7
2017-Oct-14 00:40N 70°28' W 102°17'1 4.3 1012.5 -11.6
2017-Oct-14 00:30N 70°28' W 102°18'0 0.0 1012.5 -11.5
2017-Oct-14 00:20N 70°28' W 102°18'0 0.0 1012.5 -11.5
2017-Oct-14 00:10N 70°28' W 102°18'1 0.9 1012.5
2017-Oct-13 23:30N 70°28' W 102°19'0 0.0 1012.6 -11.4
2017-Oct-13 23:20N 70°28' W 102°19'1 4.3 1012.6 -11.4
2017-Oct-13 23:10N 70°28' W 102°17'0 0.0 1012.6 -11.4
2017-Oct-13 23:00N 70°28' W 102°17'0 1.2 1012.6 -11.4
2017-Oct-13 22:50N 70°28' W 102°18'0 0.0 1012.6 -11.4
2017-Oct-13 22:40N 70°28' W 102°18'0 0.0 1012.9 -11.4
2017-Oct-13 22:30N 70°28' W 102°18'0 0.0 -11.4
2017-Oct-13 21:40N 70°28' W 102°18'0 0.0 1013.3 -11.4
2017-Oct-13 21:30N 70°28' W 102°18'0 0.0 1013.3 -11.4
2017-Oct-13 21:20N 70°28' W 102°18'0 0.0 1013.5 -11.4
2017-Oct-13 21:10N 70°28' W 102°18'0 0.0 1013.5 -11.4
2017-Oct-13 21:00N 70°28' W 102°18'0 0.0 1013.6 -11.4
2017-Oct-13 20:50N 70°28' W 102°18'0 0.0 1013.6 -11.4
2017-Oct-13 20:00N 70°28' W 102°18'0 0.0 1013.9 -10.8
2017-Oct-13 19:40N 70°28' W 102°18'0 1.2 1013.9 -10.7
2017-Oct-13 19:30N 70°28' W 102°17'0 1.2 1013.7 -10.8
2017-Oct-13 19:20N 70°28' W 102°18'0 0.0 1013.7 -10.8
2017-Oct-13 19:10N 70°28' W 102°18'0 0.0 1013.9
2017-Oct-13 18:20N 70°28' W 102°18'0 0.0 1014.2 -10.9
2017-Oct-13 18:10N 70°28' W 102°18'0 0.0 1014.2 -10.9
2017-Oct-13 18:00N 70°28' W 102°18'0 0.0 1014.3 -11.0
2017-Oct-13 17:50N 70°28' W 102°18'0 0.0 -11.0
2017-Oct-13 17:40N 70°28' W 102°18'0 0.0 1014.6 -11.1
2017-Oct-13 17:30N 70°28' W 102°18'0 0.0 1014.6 -11.1
2017-Oct-13 16:50N 70°28' W 102°18'0 0.0 1015.0 -11.4
2017-Oct-13 16:40N 70°28' W 102°18'0 0.0 1015.1 -11.4
2017-Oct-13 16:30N 70°28' W 102°18'0 0.0 1015.1 -11.4
2017-Oct-13 16:20N 70°28' W 102°18'0 0.0 1015.1 -11.4
2017-Oct-13 16:10N 70°28' W 102°18'0 0.0 1015.2 -11.4
2017-Oct-13 16:00N 70°28' W 102°18'0 1.2 1015.2 -11.4
2017-Oct-13 15:50N 70°28' W 102°19'0 0.2 1015.2 -11.4
2017-Oct-13 15:00N 70°28' W 102°18'0 0.0 1015.8 -11.5
2017-Oct-13 14:50N 70°28' W 102°18'0 0.0 1015.8 -11.5
2017-Oct-13 14:40N 70°28' W 102°18'0 0.0 1015.9 -11.5
2017-Oct-13 14:30N 70°28' W 102°18'0 0.0 1015.9
2017-Oct-13 14:20N 70°28' W 102°18'0 0.0 1015.9 -11.4
2017-Oct-13 14:10N 70°28' W 102°18'0 0.0 1015.9 -11.4
2017-Oct-13 13:20N 70°28' W 102°18'0 0.0 1016.3 -11.3
2017-Oct-13 13:10N 70°28' W 102°18'0 0.0 1016.3 -11.3
2017-Oct-13 13:00N 70°28' W 102°18'0 0.0 1016.5 -11.3
2017-Oct-13 12:50N 70°28' W 102°18'0 1.2 1016.5 -11.3
2017-Oct-13 12:40N 70°28' W 102°19'0 0.0 1016.8 -11.3
2017-Oct-13 12:30N 70°28' W 102°19'0 0.2 1016.8 -11.3
2017-Oct-13 11:40N 70°28' W 102°18'0 0.0 1016.9 -11.0
2017-Oct-13 11:30N 70°28' W 102°18'0 0.0 1016.9 -11.0
2017-Oct-13 11:20N 70°28' W 102°18'0 0.0 1016.9 -11.0
2017-Oct-13 11:10N 70°28' W 102°18'1 4.3 1016.9 -11.1
2017-Oct-13 11:00N 70°28' W 102°17'0 0.0 -11.1
2017-Oct-13 10:50N 70°28' W 102°17'1 0.9 1016.9 -11.1
2017-Oct-13 10:00N 70°28' W 102°18'0 0.0 1016.9 -10.8
2017-Oct-13 09:50N 70°28' W 102°18'0 0.0 1016.9 -10.8
2017-Oct-13 09:40N 70°28' W 102°18'0 0.0 1017.0 -11.1
2017-Oct-13 09:30N 70°28' W 102°18'0 0.0 1017.0 -11.1
2017-Oct-13 07:50N 70°28' W 102°18'0 0.0 1017.7 -12.2
2017-Oct-13 06:40N 70°28' W 102°18'0 0.0 1018.0 -12.5
2017-Oct-13 06:30N 70°28' W 102°18'0 0.0 1018.0 -12.5
2017-Oct-13 06:20N 70°28' W 102°18'0 0.0 1018.0 -12.6
2017-Oct-13 06:10N 70°28' W 102°18'0 0.0 1018.0 -12.7
2017-Oct-13 05:40N 70°28' W 102°18'0 0.0 1018.3 -12.8
2017-Oct-13 05:00N 70°28' W 102°18'0 0.0 1018.3 -12.9
2017-Oct-13 04:50N 70°28' W 102°18'0 0.0 1018.3 -12.9
2017-Oct-13 04:40N 70°28' W 102°18'0 0.3 1018.3 -12.9
2017-Oct-13 04:00N 70°28' W 102°17'0 1.2 1018.4 -12.6
2017-Oct-13 03:50N 70°28' W 102°18'0 0.0 1018.4 -12.6
2017-Oct-13 03:20N 70°28' W 102°18'0 0.0 1018.4 -12.5
2017-Oct-13 03:10N 70°28' W 102°18'0 0.0 1018.4 -12.5
2017-Oct-13 03:00N 70°28' W 102°18'0 0.0 1018.4 -12.5
2017-Oct-13 02:20N 70°28' W 102°18'0 0.0 1018.4 -12.2
2017-Oct-13 02:10N 70°28' W 102°18'0 0.0 1018.5 -12.2
2017-Oct-13 01:40N 70°28' W 102°18'0 0.0 1018.5 -12.2
2017-Oct-13 01:30N 70°28' W 102°18'0 0.0 1018.5 -12.2
2017-Oct-13 01:20N 70°28' W 102°18'0 1.2 1018.4 -12.1
2017-Oct-13 01:10N 70°28' W 102°17'0 0.6 1018.4 -12.1
2017-Oct-13 00:50N 70°28' W 102°18'0 1.2 1018.3 -11.9
2017-Oct-13 00:40N 70°28' W 102°17'0 1.2 1018.4 -11.8
2017-Oct-13 00:30N 70°28' W 102°18'0 0.0 1018.3 -11.7
2017-Oct-13 00:00N 70°28' W 102°18'0 0.0 1018.3 -11.5
2017-Oct-12 23:50N 70°28' W 102°18'0 2.4 1018.3 -11.5
2017-Oct-12 23:40N 70°28' W 102°17'0 0.0 1018.1 -11.5
2017-Oct-12 23:30N 70°28' W 102°17'0 1.2 1018.1 -11.5
2017-Oct-12 23:10N 70°28' W 102°18'0 0.0 1018.1 -11.5
2017-Oct-12 23:00N 70°28' W 102°18'0 0.0 1018.0 -11.5
2017-Oct-12 22:50N 70°28' W 102°18'0 0.0 1018.0
2017-Oct-12 22:20N 70°28' W 102°18'0 0.0 1018.0 -11.3
2017-Oct-12 22:10N 70°28' W 102°18'0 0.0 1018.0 -11.3
2017-Oct-12 22:00N 70°28' W 102°18'0 0.0 1018.1 -11.0
2017-Oct-12 21:50N 70°28' W 102°18'0 0.0 1018.1 -11.0
2017-Oct-12 21:30N 70°28' W 102°18'0 0.0 1017.8 -10.6
2017-Oct-12 21:20N 70°28' W 102°18'0 0.0 1017.8 -10.5
2017-Oct-12 21:10N 70°28' W 102°18'0 0.0 1017.8 -10.5
2017-Oct-12 20:20N 70°28' W 102°18'0 0.0 1017.6 -10.3
2017-Oct-12 20:10N 70°28' W 102°18'0 0.0 1017.6 -10.3
2017-Oct-12 19:50N 70°28' W 102°18'0 0.0 1017.4 -10.2
2017-Oct-12 19:40N 70°28' W 102°18'0 0.0 1017.4 -10.1
2017-Oct-12 19:30N 70°28' W 102°18'0 0.0 1017.4 -10.1
2017-Oct-12 18:50N 70°28' W 102°18'0 0.0 -10.1
2017-Oct-12 18:40N 70°28' W 102°18'0 0.0 1017.2 -10.1
2017-Oct-12 18:30N 70°28' W 102°18'0 0.0 1017.2 -10.2
2017-Oct-12 18:10N 70°28' W 102°18'0 0.0 1017.2 -10.2
2017-Oct-12 18:00N 70°28' W 102°18'0 0.0 1017.2 -10.3
2017-Oct-12 17:50N 70°28' W 102°18'0 0.0 1017.2 -10.3
2017-Oct-12 17:10N 70°28' W 102°18'0 0.0 1017.2 -10.4
2017-Oct-12 17:00N 70°28' W 102°18'0 0.0 1017.0 -10.4
2017-Oct-12 16:30N 70°28' W 102°18'0 1.2 1016.9 -10.6
2017-Oct-12 16:20N 70°28' W 102°17'0 1.2 1016.9 -10.6
2017-Oct-12 16:10N 70°28' W 102°18'0 0.0 1016.9 -10.6
2017-Oct-12 15:30N 70°28' W 102°18'0 1.2 1016.9 -11.1
2017-Oct-12 15:20N 70°28' W 102°17'0 0.0 1016.9 -11.1
2017-Oct-12 15:10N 70°28' W 102°17'0 0.6 1016.8 -11.3
2017-Oct-12 14:50N 70°28' W 102°18'0 0.0 1016.8 -11.4
2017-Oct-12 14:40N 70°28' W 102°18'0 0.0 1016.8 -11.5
2017-Oct-12 14:30N 70°28' W 102°18'0 0.0 1016.8 -11.5
2017-Oct-12 13:50N 70°28' W 102°18'0 0.0 1016.6 -11.3
2017-Oct-12 13:40N 70°28' W 102°18'0 0.4 1016.6 -11.1
2017-Oct-12 13:10N 70°28' W 102°17'0 0.0 1016.5 -11.1
2017-Oct-12 13:00N 70°28' W 102°17'0 2.4 1016.5 -11.1
2017-Oct-12 12:50N 70°28' W 102°19'0 0.0 1016.3 -11.1
2017-Oct-12 08:10N 70°28' W 102°18'0 0.0 1015.7 -12.9
2017-Oct-12 08:00N 70°28' W 102°18'0 0.2 1015.7 -12.9
2017-Oct-12 07:10N 70°28' W 102°17'0 0.0 1015.4 -12.7
2017-Oct-12 07:00N 70°28' W 102°17'0 1.2 1015.4 -12.7
2017-Oct-12 06:50N 70°28' W 102°18'0 0.0 1015.4 -12.6
2017-Oct-12 06:40N 70°28' W 102°18'0 0.0 1015.4 -12.6
2017-Oct-12 06:20N 70°28' W 102°18'0 0.0 1015.4
2017-Oct-12 06:00N 70°28' W 102°18'0 0.0 1015.4 -12.5
2017-Oct-12 05:30N 70°28' W 102°18'0 0.0 1015.2 -12.4
2017-Oct-12 05:20N 70°28' W 102°18'0 0.0 1015.1 -12.4
2017-Oct-12 05:10N 70°28' W 102°18'0 0.0 1014.8 -12.3
2017-Oct-12 05:00N 70°28' W 102°18'0 0.0 1014.8 -12.3
2017-Oct-12 04:20N 70°28' W 102°18'0 0.0 1014.7 -12.3
2017-Oct-12 04:10N 70°28' W 102°18'0 0.0 1014.6 -12.3
2017-Oct-12 03:50N 70°28' W 102°18'0 0.0 1014.6 -12.3
2017-Oct-12 03:40N 70°28' W 102°18'0 0.0 1014.6 -12.3
2017-Oct-12 03:20N 70°28' W 102°18'0 0.0 1014.6 -12.2
2017-Oct-12 03:10N 70°28' W 102°18'0 0.0 1014.4 -12.2
2017-Oct-12 02:40N 70°28' W 102°18'0 0.0 1014.3 -12.3
2017-Oct-12 02:30N 70°28' W 102°18'0 1.2 1014.3 -12.3
2017-Oct-12 02:20N 70°28' W 102°17'0 2.4 1014.3 -12.4
2017-Oct-12 02:10N 70°28' W 102°19'0 0.0 1014.3 -12.4
2017-Oct-12 02:00N 70°28' W 102°19'0 2.4 1014.3 -12.4
2017-Oct-12 01:50N 70°28' W 102°17'0 0.0 1014.0 -12.3
2017-Oct-12 01:40N 70°28' W 102°17'0 1.2 1014.0 -12.3
2017-Oct-12 01:30N 70°28' W 102°18'0 0.6 1014.0 -12.2
2017-Oct-12 01:10N 70°28' W 102°17'0 1.2 1014.0 -12.2
2017-Oct-12 01:00N 70°28' W 102°18'0 1.2 1014.0 -12.2
2017-Oct-12 00:50N 70°28' W 102°17'0 1.2 1013.9 -12.1
2017-Oct-12 00:40N 70°28' W 102°18'0 0.0 1013.9 -12.1
2017-Oct-12 00:30N 70°28' W 102°18'0 0.0 1013.9 -12.1
2017-Oct-12 00:20N 70°28' W 102°18'0 0.0 1013.9 -12.0
2017-Oct-12 00:10N 70°28' W 102°18'0 0.0 1013.9 -11.9
2017-Oct-12 00:00N 70°28' W 102°18'0 0.0 1013.9 -11.9
2017-Oct-11 23:30N 70°28' W 102°18'0 0.0 1013.7 -11.9
2017-Oct-11 23:20N 70°28' W 102°18'0 0.0 1013.7 -11.8
2017-Oct-11 23:10N 70°28' W 102°18'0 0.0 1013.7 -11.8
2017-Oct-11 23:00N 70°28' W 102°18'0 0.0 1013.6 -11.7
2017-Oct-11 22:50N 70°28' W 102°18'0 0.0 1013.6 -11.7
2017-Oct-11 22:40N 70°28' W 102°18'0 0.0 1013.6 -11.6
2017-Oct-11 22:20N 70°28' W 102°18'0 0.0 1013.5 -11.6
2017-Oct-11 21:40N 70°28' W 102°18'0 0.0 1013.2 -11.5
2017-Oct-11 21:30N 70°28' W 102°18'0 0.0 1013.1 -11.5
2017-Oct-11 21:20N 70°28' W 102°18'1 6.0 1013.1 -11.5
2017-Oct-11 21:10N 70°29' W 102°20'1 3.0 1012.9 -11.5
2017-Oct-11 20:50N 70°28' W 102°18'0 0.0 1013.1 -11.6
2017-Oct-11 20:40N 70°28' W 102°18'0 0.0 1013.1 -11.6
2017-Oct-11 20:00N 70°28' W 102°18'0 0.0 1012.6 -11.8
2017-Oct-11 19:50N 70°28' W 102°18'0 1.2 1012.6 -11.8
2017-Oct-11 19:40N 70°28' W 102°17'0 0.4 1012.4
2017-Oct-11 19:10N 70°28' W 102°18'0 0.0 1012.2 -11.8
2017-Oct-11 19:00N 70°28' W 102°18'1 1.3 1012.2 -11.8
2017-Oct-11 18:20N 70°28' W 102°16'1 5.1 1011.8
2017-Oct-11 18:10N 70°28' W 102°18'0 0.0 -11.9
2017-Oct-11 18:00N 70°28' W 102°18'0 0.0 1011.7 -11.9
2017-Oct-11 17:30N 70°28' W 102°18'0 0.0 1011.6 -11.4
2017-Oct-11 17:20N 70°28' W 102°18'0 0.0 1011.6 -11.4
2017-Oct-11 16:40N 70°28' W 102°18'0 1.2 1011.3 -11.6
2017-Oct-11 16:30N 70°28' W 102°17'0 0.0 1011.3 -11.6
2017-Oct-11 16:20N 70°28' W 102°17'0 1.2 1011.3 -11.6
2017-Oct-11 16:00N 70°28' W 102°16'1 3.6 1011.1 -11.6
2017-Oct-11 15:50N 70°28' W 102°18'0 0.0 1011.0 -11.6
2017-Oct-11 15:40N 70°28' W 102°18'0 0.3 1011.0 -11.6
2017-Oct-11 15:00N 70°28' W 102°17'0 1.2 1010.9 -11.5
2017-Oct-11 14:50N 70°28' W 102°18'0 1.2 1010.7 -11.5
2017-Oct-11 14:40N 70°28' W 102°19'0 0.6 1010.7 -11.5
2017-Oct-11 14:20N 70°28' W 102°18'0 0.0 -11.4
2017-Oct-11 14:10N 70°28' W 102°18'0 0.0 1010.5 -11.4
2017-Oct-11 14:00N 70°28' W 102°18'0 0.0 1010.5 -11.4
2017-Oct-11 13:50N 70°28' W 102°18'0 0.0 1010.5 -11.4
2017-Oct-11 13:20N 70°28' W 102°18'0 1.2 1010.3 -11.2
2017-Oct-11 13:10N 70°28' W 102°17'0 1.2 1010.3 -11.2
2017-Oct-11 13:00N 70°28' W 102°18'0 0.0 1010.3 -11.2
2017-Oct-11 12:40N 70°28' W 102°18'0 0.0 1010.2 -11.1
2017-Oct-11 12:30N 70°28' W 102°18'0 0.0 1010.2 -11.0
2017-Oct-11 12:20N 70°28' W 102°18'0 0.0 1010.2 -11.0
2017-Oct-11 11:40N 70°28' W 102°18'0 0.0 1010.2 -10.9
2017-Oct-11 11:30N 70°28' W 102°18'0 1.2 1010.0 -10.8
2017-Oct-11 11:20N 70°28' W 102°19'0 0.0 1010.2 -10.8
2017-Oct-11 11:00N 70°28' W 102°19'0 1.2 1010.0 -10.5
2017-Oct-11 10:50N 70°28' W 102°18'1 3.6 1010.0 -10.5
2017-Oct-11 10:40N 70°28' W 102°18'1 0.9 1009.9 -10.4
2017-Oct-11 10:00N 70°28' W 102°18'0 0.0 1009.8 -10.5
2017-Oct-11 09:50N 70°28' W 102°18'0 0.0 1009.8 -10.5
2017-Oct-11 09:20N 70°28' W 102°18'0 0.0 1009.9 -10.7
2017-Oct-11 09:10N 70°28' W 102°18'0 0.0 1009.9 -10.7
2017-Oct-11 08:20N 70°28' W 102°18'0 0.0 1009.8 -10.8
2017-Oct-11 08:10N 70°28' W 102°18'0 0.0 1009.8 -10.8
2017-Oct-11 07:40N 70°28' W 102°18'0 0.0 1009.8 -10.9
2017-Oct-11 07:30N 70°28' W 102°18'0 0.0 1009.8 -10.9
2017-Oct-11 07:10N 70°28' W 102°18'0 0.0 1009.8 -10.9
2017-Oct-11 07:00N 70°28' W 102°18'1 1.3 1009.8 -10.9
2017-Oct-11 06:30N 70°29' W 102°19'1 4.3 1009.9 -10.8
2017-Oct-11 06:20N 70°28' W 102°17'0 0.6 1009.9 -10.8
2017-Oct-11 06:00N 70°28' W 102°18'0 0.0 1009.9 -10.8
2017-Oct-11 05:50N 70°28' W 102°18'0 0.6 1009.9 -10.9
2017-Oct-11 05:30N 70°28' W 102°17'0 1.2 1010.0 -10.9
2017-Oct-11 05:20N 70°28' W 102°18'0 0.3 1010.2 -10.8
2017-Oct-11 04:40N 70°28' W 102°17'0 1.2 1010.2 -10.8
2017-Oct-11 04:30N 70°28' W 102°18'1 3.8 1010.2 -10.8
2017-Oct-11 04:20N 70°29' W 102°17'1 3.8 1010.3 -10.6
2017-Oct-11 04:10N 70°28' W 102°18'1 1.9 1010.3 -10.6
2017-Oct-11 03:50N 70°29' W 102°17'1 3.8 1010.3 -10.5
2017-Oct-11 03:40N 70°28' W 102°18'0 0.0 1010.3
2017-Oct-11 03:00N 70°28' W 102°18'0 0.0 1010.5 -10.2
2017-Oct-11 02:50N 70°28' W 102°18'0 1.2 1010.5 -10.2
2017-Oct-11 02:40N 70°28' W 102°17'0 0.4 1010.5 -10.1
2017-Oct-11 02:10N 70°28' W 102°18'0 1.2 1010.7 -10.0
2017-Oct-11 02:00N 70°28' W 102°17'0 0.3 1010.7 -10.0
2017-Oct-11 01:20N 70°28' W 102°18'0 0.0 1010.9 -9.8
2017-Oct-11 01:10N 70°28' W 102°18'0 1.2 1010.9 -9.8
2017-Oct-11 01:00N 70°28' W 102°19'0 2.4 1010.9 -9.6
2017-Oct-11 00:50N 70°28' W 102°17'0 0.0 1010.9 -9.6
2017-Oct-11 00:30N 70°28' W 102°17'1 5.1 1010.9 -9.3
2017-Oct-11 00:20N 70°28' W 102°19'1 1.1 1010.9 -9.3
2017-Oct-10 23:40N 70°28' W 102°18'0 1.2 1011.0 -9.0
2017-Oct-10 23:30N 70°28' W 102°17'0 1.2 1011.0 -9.0
2017-Oct-10 23:20N 70°28' W 102°18'0 0.0 1011.0 -8.9
2017-Oct-10 23:10N 70°28' W 102°18'0 0.0 1011.0
2017-Oct-10 22:50N 70°28' W 102°18'0 1.2 1011.0 -8.7
2017-Oct-10 22:40N 70°28' W 102°17'0 0.3 1011.0 -8.6
2017-Oct-10 22:00N 70°28' W 102°18'0 0.0 1011.0 -8.3
2017-Oct-10 21:50N 70°28' W 102°18'0 1.2 1010.9 -8.2
2017-Oct-10 21:40N 70°28' W 102°17'0 1.2 1011.0 -8.2
2017-Oct-10 21:30N 70°28' W 102°18'0 0.6 1011.0 -8.2
2017-Oct-10 21:10N 70°28' W 102°17'0 1.2 1010.9 -8.0
2017-Oct-10 21:00N 70°28' W 102°18'0 0.0 1010.9 -7.7
2017-Oct-10 20:20N 70°28' W 102°18'0 0.0 1010.9 -7.3
2017-Oct-10 20:10N 70°28' W 102°18'0 1.2 1010.9 -7.2
2017-Oct-10 20:00N 70°28' W 102°19'0 1.2 1010.9 -7.2
2017-Oct-10 19:50N 70°28' W 102°18'0 0.6 1010.9 -7.2
2017-Oct-10 19:30N 70°28' W 102°19'0 0.0 1010.9 -6.9
2017-Oct-10 19:20N 70°28' W 102°19'0 0.3 1010.7 -6.6
2017-Oct-10 18:40N 70°28' W 102°18'0 0.0 1010.6 -5.9
2017-Oct-10 18:30N 70°28' W 102°18'0 0.0 1010.6 -6.1
2017-Oct-10 18:20N 70°28' W 102°18'0 1.2 1010.6 -6.1
2017-Oct-10 18:10N 70°28' W 102°17'0 0.6 1010.6 -6.1
2017-Oct-10 17:50N 70°28' W 102°18'0 0.0 1010.5 -6.2
2017-Oct-10 17:40N 70°28' W 102°18'0 0.0 1010.5 -6.2
2017-Oct-10 17:00N 70°28' W 102°18'0 0.0 1010.6 -6.3
2017-Oct-10 16:50N 70°28' W 102°18'0 0.0 1010.6 -6.3
2017-Oct-10 16:40N 70°28' W 102°18'0 1.2 1010.6 -6.3
2017-Oct-10 16:30N 70°28' W 102°17'0 1.2 1010.7 -6.4
2017-Oct-10 16:20N 70°28' W 102°18'0 0.0 1010.6 -6.3
2017-Oct-10 16:10N 70°28' W 102°18'0 0.0 1010.6 -6.3
2017-Oct-10 16:00N 70°28' W 102°18'0 0.0 1010.6 -6.3
2017-Oct-10 15:20N 70°28' W 102°18'0 0.0 1010.6 -6.2
2017-Oct-10 15:10N 70°28' W 102°18'0 0.0 1010.6 -6.2
2017-Oct-10 15:00N 70°28' W 102°18'0 0.0 1010.5 -6.2
2017-Oct-10 14:50N 70°28' W 102°18'0 0.0 1010.5 -6.2
2017-Oct-10 14:40N 70°28' W 102°18'0 0.0 1010.5 -6.3
2017-Oct-10 14:30N 70°28' W 102°18'0 0.0 1010.5 -6.3
2017-Oct-10 13:40N 70°28' W 102°18'0 0.0 1010.7
2017-Oct-10 13:30N 70°28' W 102°18'0 0.0 1010.7 -6.2
2017-Oct-10 13:20N 70°28' W 102°18'0 0.0 1010.7 -6.3
2017-Oct-10 13:10N 70°28' W 102°18'0 0.0 1010.7 -6.3
2017-Oct-10 13:00N 70°28' W 102°18'0 0.0 1010.9 -6.3
2017-Oct-10 12:50N 70°28' W 102°18'0 0.0 1010.9 -6.3
2017-Oct-10 12:40N 70°28' W 102°18'0 0.0 1011.0 -6.3
2017-Oct-10 12:00N 70°28' W 102°18'0 0.0 1011.1 -6.5
2017-Oct-10 11:50N 70°28' W 102°18'0 0.0 1011.1 -6.5
2017-Oct-10 11:40N 70°28' W 102°18'0 0.0 1011.3 -6.6
2017-Oct-10 11:30N 70°28' W 102°18'0 0.0 1011.3 -6.8
2017-Oct-10 11:20N 70°28' W 102°18'0 0.0 1011.3
2017-Oct-10 11:10N 70°28' W 102°18'0 0.0 1011.4 -6.9
2017-Oct-10 10:10N 70°28' W 102°18'0 0.0 1011.6 -6.9
2017-Oct-10 10:00N 70°28' W 102°18'0 0.0 1011.6 -6.9
2017-Oct-10 09:50N 70°28' W 102°18'0 0.0 1011.7 -6.7
2017-Oct-10 09:40N 70°28' W 102°18'0 0.0 1011.7 -6.7
2017-Oct-10 08:30N 70°28' W 102°18'0 0.0 1011.8 -6.7
2017-Oct-10 08:20N 70°28' W 102°18'0 0.0 1011.8 -6.7
2017-Oct-10 08:10N 70°28' W 102°18'0 0.0 1011.8 -6.7
2017-Oct-10 08:00N 70°28' W 102°18'0 0.4 1011.8 -6.7
2017-Oct-10 07:30N 70°28' W 102°19'0 0.0 1011.8 -6.8
2017-Oct-10 07:20N 70°28' W 102°19'0 0.3 1011.8 -6.8
2017-Oct-10 06:40N 70°28' W 102°18'0 0.0 1011.8 -6.9
2017-Oct-10 06:30N 70°28' W 102°18'0 0.0 1011.8 -6.9
2017-Oct-10 06:20N 70°28' W 102°18'0 0.0 1011.8 -6.8
2017-Oct-10 05:50N 70°28' W 102°18'0 0.0 1011.8 -6.5
2017-Oct-10 05:40N 70°28' W 102°18'0 0.0 1011.8
2017-Oct-10 05:00N 70°28' W 102°18'0 0.0 1011.8 -6.2
2017-Oct-10 04:50N 70°28' W 102°18'0 0.0 1011.8 -6.2
2017-Oct-10 04:40N 70°28' W 102°18'0 1.2 1011.8 -6.2
2017-Oct-10 04:30N 70°28' W 102°19'0 0.6 1011.8 -6.2
2017-Oct-10 04:10N 70°28' W 102°18'0 1.2 1011.8 -6.3
2017-Oct-10 04:00N 70°28' W 102°17'0 0.0 1011.8 -6.3
2017-Oct-10 03:20N 70°28' W 102°17'0 0.0 1012.0 -6.6
2017-Oct-10 03:10N 70°28' W 102°17'0 0.0 1012.0 -6.7
2017-Oct-10 02:50N 70°28' W 102°17'0 0.6 1012.0 -6.9
2017-Oct-10 02:30N 70°28' W 102°18'0 0.0 -7.0
2017-Oct-10 02:20N 70°28' W 102°18'0 0.0 1012.0 -7.0
2017-Oct-10 01:40N 70°28' W 102°18'1 3.8 1012.1 -7.2
2017-Oct-10 01:30N 70°28' W 102°19'1 2.2 1012.1 -7.2
2017-Oct-10 01:10N 70°28' W 102°17'0 1.2 1012.1 -7.3
2017-Oct-10 01:00N 70°28' W 102°18'0 0.0 1012.1 -7.3
2017-Oct-10 00:50N 70°28' W 102°18'0 1.2 1012.1 -7.3
2017-Oct-10 00:40N 70°28' W 102°17'0 0.3 1012.2 -7.4
2017-Oct-10 00:00N 70°28' W 102°18'0 1.2 1012.2 -7.3
2017-Oct-09 23:50N 70°28' W 102°17'0 0.0 1012.4 -7.3
2017-Oct-09 23:40N 70°28' W 102°17'0 0.0 1012.4 -7.3
2017-Oct-09 23:30N 70°28' W 102°17'0 1.2 1012.4 -7.3
2017-Oct-09 23:20N 70°28' W 102°18'0 0.0 1012.4 -7.3
2017-Oct-09 23:10N 70°28' W 102°18'0 0.0 1012.4 -7.4
2017-Oct-09 23:00N 70°28' W 102°18'0 0.3 1012.5 -7.5
2017-Oct-09 22:20N 70°28' W 102°17'0 1.2 1012.5 -7.4
2017-Oct-09 22:10N 70°28' W 102°18'0 0.0 1012.4 -7.3
2017-Oct-09 22:00N 70°28' W 102°18'0 0.0 1012.4 -7.3
2017-Oct-09 21:50N 70°28' W 102°18'0 0.0 1012.5 -7.0
2017-Oct-09 21:40N 70°28' W 102°18'0 0.0 1012.4 -6.9
2017-Oct-09 21:30N 70°28' W 102°18'0 0.0 1012.4 -6.9
2017-Oct-09 21:20N 70°28' W 102°18'0 0.3 1012.4 -6.8
2017-Oct-09 20:40N 70°28' W 102°17'1 4.3
2017-Oct-09 20:30N 70°28' W 102°19'1 4.3 1012.4 -7.2
2017-Oct-09 20:20N 70°28' W 102°17'0 0.0 1012.4 -7.2
2017-Oct-09 20:10N 70°28' W 102°17'0 1.2 1012.4 -7.3
2017-Oct-09 20:00N 70°28' W 102°18'0 0.0 1012.4
2017-Oct-09 19:50N 70°28' W 102°18'0 0.0 1012.4 -7.5
2017-Oct-09 19:00N 70°28' W 102°18'0 0.0 1012.4 -8.8
2017-Oct-09 18:50N 70°28' W 102°18'0 0.0 1012.4 -8.9
2017-Oct-09 18:40N 70°28' W 102°18'0 0.0 1012.4 -8.8
2017-Oct-09 18:30N 70°28' W 102°18'0 0.0 1012.4 -9.0
2017-Oct-09 18:20N 70°28' W 102°18'0 0.0 1012.2 -9.0
2017-Oct-09 18:10N 70°28' W 102°18'0 0.0 1012.2 -9.0
2017-Oct-09 18:00N 70°28' W 102°18'0 0.0 1012.2 -9.2
2017-Oct-09 17:20N 70°28' W 102°18'0 0.0 1012.1 -9.2
2017-Oct-09 17:10N 70°28' W 102°18'0 0.0 1012.1 -9.1
2017-Oct-09 17:00N 70°28' W 102°18'0 0.0 1012.1 -9.1
2017-Oct-09 16:50N 70°28' W 102°18'0 1.2 1012.0 -9.1
2017-Oct-09 16:40N 70°28' W 102°17'0 0.0 1012.0 -9.1
2017-Oct-09 16:30N 70°28' W 102°17'0 0.2 1012.0 -9.1
2017-Oct-09 15:40N 70°28' W 102°18'0 0.0 1012.0 -9.3
2017-Oct-09 15:30N 70°28' W 102°18'0 1.2 1012.0 -9.5
2017-Oct-09 15:20N 70°28' W 102°17'0 1.2 1012.0 -9.5
2017-Oct-09 15:10N 70°28' W 102°18'0 1.2 1012.0 -9.6
2017-Oct-09 15:00N 70°28' W 102°17'0 0.0 1012.0
2017-Oct-09 14:50N 70°28' W 102°17'0 0.0 1012.0 -9.9
2017-Oct-09 14:00N 70°28' W 102°17'0 1.2 1012.0 -10.1
2017-Oct-09 13:50N 70°28' W 102°18'0 0.0 1012.0 -10.1
2017-Oct-09 13:40N 70°28' W 102°18'0 0.0 1012.0 -10.1
2017-Oct-09 13:30N 70°28' W 102°18'0 1.2 1012.0 -9.9
2017-Oct-09 13:20N 70°28' W 102°19'0 0.0 1012.0
2017-Oct-09 12:10N 70°28' W 102°19'0 1.2 1012.1 -9.5
2017-Oct-09 12:00N 70°28' W 102°19'1 3.6 1012.1 -9.5
2017-Oct-09 11:50N 70°28' W 102°17'0 1.2 1012.2 -9.4
2017-Oct-09 11:40N 70°28' W 102°18'0 0.0 1012.2 -9.4
2017-Oct-09 11:30N 70°28' W 102°18'0 0.0 1012.2 -9.3
2017-Oct-09 10:30N 70°28' W 102°18'0 0.0 1012.1 -9.1
2017-Oct-09 10:20N 70°28' W 102°18'0 0.0 1012.1 -9.1
2017-Oct-09 10:10N 70°28' W 102°18'0 0.0 1012.1 -9.1
2017-Oct-09 10:00N 70°28' W 102°18'0 0.0 1012.2 -9.1
2017-Oct-09 09:50N 70°28' W 102°18'0 0.0 1012.2 -9.1
2017-Oct-09 08:40N 70°28' W 102°18'0 0.0 1012.4 -9.1
2017-Oct-09 08:30N 70°28' W 102°18'0 0.3 1012.4 -9.1
2017-Oct-09 07:50N 70°28' W 102°17'0 0.0 1012.2 -8.9
2017-Oct-09 07:00N 70°28' W 102°17'0 0.0 1012.5 -8.9
2017-Oct-09 06:50N 70°28' W 102°17'0 0.3 1012.5 -8.9
2017-Oct-09 06:10N 70°28' W 102°18'0 0.0 1012.4 -8.9
2017-Oct-09 06:00N 70°28' W 102°18'0 0.3 1012.4 -8.9
2017-Oct-09 05:20N 70°28' W 102°17'0 0.0 1012.4
2017-Oct-09 04:50N 70°28' W 102°17'0 1.2 1012.5 -8.7
2017-Oct-09 04:40N 70°28' W 102°18'0 0.0 1012.5 -8.7
2017-Oct-09 04:30N 70°28' W 102°18'0 0.0 1012.4 -8.8
2017-Oct-09 04:20N 70°28' W 102°18'0 0.0 1012.4 -8.8
2017-Oct-09 03:40N 70°28' W 102°18'0 0.0 1012.4 -8.5
2017-Oct-09 03:30N 70°28' W 102°18'0 0.0 1012.4 -8.5
2017-Oct-09 03:10N 70°28' W 102°18'0 1.2 1012.5 -8.3
2017-Oct-09 03:00N 70°28' W 102°17'0 0.0 1012.5 -8.2
2017-Oct-09 02:50N 70°28' W 102°17'0 0.0 1012.6 -8.0
2017-Oct-09 02:40N 70°28' W 102°17'0 0.4 1012.6 -8.0
2017-Oct-09 02:10N 70°28' W 102°18'0 0.0 1012.6 -7.6
2017-Oct-09 02:00N 70°28' W 102°18'0 1.2 1012.6 -7.6
2017-Oct-09 01:50N 70°28' W 102°19'0 0.0 1012.6 -7.6
2017-Oct-09 01:40N 70°28' W 102°19'0 1.2 1012.6 -7.6
2017-Oct-09 01:30N 70°28' W 102°18'0 0.0 1012.8 -7.5
2017-Oct-09 01:20N 70°28' W 102°18'0 0.0 1012.8 -7.7
2017-Oct-09 01:10N 70°28' W 102°18'0 0.0 1012.8 -7.7
2017-Oct-09 01:00N 70°28' W 102°18'0 0.0 1012.8 -7.6
2017-Oct-09 00:30N 70°28' W 102°18'0 0.0 1012.9 -7.3
2017-Oct-09 00:20N 70°28' W 102°18'0 0.0 1012.9 -7.1
2017-Oct-09 00:10N 70°28' W 102°18'0 0.0 1012.9 -7.1
2017-Oct-09 00:00N 70°28' W 102°18'0 0.0 1013.1 -7.0
2017-Oct-08 23:50N 70°28' W 102°18'0 0.0 1013.1 -7.0
2017-Oct-08 23:40N 70°28' W 102°18'1 3.6 1013.1 -7.0
2017-Oct-08 23:30N 70°28' W 102°18'0 0.0 1013.1 -6.9
2017-Oct-08 23:20N 70°28' W 102°18'1 0.9 1013.1 -6.8
2017-Oct-08 22:40N 70°28' W 102°17'0 1.2 1013.1
2017-Oct-08 22:30N 70°28' W 102°18'0 0.0 1013.1 -6.7
2017-Oct-08 22:20N 70°28' W 102°18'0 0.0 1013.1 -6.7
2017-Oct-08 22:10N 70°28' W 102°18'0 0.0 1013.1 -6.7
2017-Oct-08 22:00N 70°28' W 102°18'0 0.0 1013.1 -6.8
2017-Oct-08 21:50N 70°28' W 102°18'0 0.0 1013.2 -6.6
2017-Oct-08 21:40N 70°28' W 102°18'0 0.3 1013.2 -6.6
2017-Oct-08 21:00N 70°28' W 102°17'0 1.2 1013.2
2017-Oct-08 20:50N 70°28' W 102°17'0 0.0 1013.2
2017-Oct-08 20:40N 70°28' W 102°17'0 2.4 1013.3 -6.2
2017-Oct-08 20:30N 70°28' W 102°18'0 0.0 1013.3 -6.2
2017-Oct-08 20:20N 70°28' W 102°18'0 0.0 1013.3 -6.2
2017-Oct-08 20:00N 70°28' W 102°18'0 0.3 1013.2
2017-Oct-08 19:20N 70°28' W 102°17'0 0.6 1013.2 -5.9
2017-Oct-08 19:00N 70°28' W 102°18'0 0.0 1013.2 -6.0
2017-Oct-08 18:50N 70°28' W 102°18'0 0.0 1013.2
2017-Oct-08 18:40N 70°28' W 102°18'0 1.2 1013.2 -6.1
2017-Oct-08 18:30N 70°28' W 102°17'0 0.2 1013.2 -6.1
2017-Oct-08 17:40N 70°28' W 102°18'0 0.0 -6.4
2017-Oct-08 17:30N 70°28' W 102°18'0 0.0 1013.2 -6.4
2017-Oct-08 17:20N 70°28' W 102°18'0 0.0 1013.2 -6.7
2017-Oct-08 17:10N 70°28' W 102°18'0 0.0 1013.2 -6.7
2017-Oct-08 17:00N 70°28' W 102°18'0 0.0 1013.3 -7.0
2017-Oct-08 16:50N 70°28' W 102°18'0 0.0 1013.2 -7.4
2017-Oct-08 16:00N 70°28' W 102°18'0 1.2 1013.3 -7.8
2017-Oct-08 15:50N 70°28' W 102°17'0 0.0 1013.3 -7.7
2017-Oct-08 15:40N 70°28' W 102°17'0 1.2 1013.3 -7.5
2017-Oct-08 15:30N 70°28' W 102°18'0 0.0 1013.3 -7.3
2017-Oct-08 15:20N 70°28' W 102°18'0 0.0 1013.3 -7.3
2017-Oct-08 15:00N 70°28' W 102°18'0 0.3 1013.3 -7.5
2017-Oct-08 14:20N 70°28' W 102°17'0 1.2 1013.3 -7.7
2017-Oct-08 14:10N 70°28' W 102°18'0 0.0 1013.3 -7.8
2017-Oct-08 14:00N 70°28' W 102°18'0 0.0 1013.3 -8.0
2017-Oct-08 13:50N 70°28' W 102°18'0 0.0 1013.3 -8.0
2017-Oct-08 13:40N 70°28' W 102°18'0 0.0 1013.2 -8.1
2017-Oct-08 13:30N 70°28' W 102°18'0 0.0 1013.2 -8.3
2017-Oct-08 12:30N 70°28' W 102°18'0 1.2 1013.1 -8.0
2017-Oct-08 12:20N 70°28' W 102°17'0 0.0 1013.1 -8.1
2017-Oct-08 12:10N 70°28' W 102°17'0 0.0 1013.1 -8.1
2017-Oct-08 12:00N 70°28' W 102°17'0 0.0 1013.1 -8.4
2017-Oct-08 11:50N 70°28' W 102°17'0 0.0 1013.1 -8.4
2017-Oct-08 10:50N 70°28' W 102°17'0 1.2 1013.2 -9.0
2017-Oct-08 10:40N 70°28' W 102°18'0 1.2 1013.2
2017-Oct-08 10:30N 70°28' W 102°19'0 0.6 1013.2 -9.1
2017-Oct-08 10:10N 70°28' W 102°18'0 0.0 1013.2 -9.3
2017-Oct-08 09:10N 70°28' W 102°18'0 0.0 1013.3 -9.3
2017-Oct-08 09:00N 70°28' W 102°18'0 0.0 1013.3 -9.3
2017-Oct-08 08:50N 70°28' W 102°18'0 0.0 1013.3 -9.3
2017-Oct-08 08:40N 70°28' W 102°18'0 0.0 1013.3 -9.2
2017-Oct-08 08:10N 70°28' W 102°18'0 0.0 1013.3 -9.3
2017-Oct-08 07:30N 70°28' W 102°18'0 0.0 1013.2 -9.2
2017-Oct-08 07:20N 70°28' W 102°18'0 1.2 1013.2 -9.3
2017-Oct-08 07:10N 70°28' W 102°17'0 0.0 1013.2 -8.7
2017-Oct-08 07:00N 70°28' W 102°17'0 0.4 1013.2 -8.7
2017-Oct-08 06:30N 70°28' W 102°18'0 0.0 1013.1 -8.0
2017-Oct-08 06:20N 70°28' W 102°18'0 0.0 1013.1 -8.0
2017-Oct-08 06:00N 70°28' W 102°18'0 0.0 1013.1 -8.5
2017-Oct-08 05:50N 70°28' W 102°18'0 0.0 1013.1 -8.5
2017-Oct-08 05:40N 70°28' W 102°18'0 0.0 1013.1 -8.6
2017-Oct-08 05:10N 70°28' W 102°18'0 0.0 1013.1 -8.5
2017-Oct-08 05:00N 70°28' W 102°18'0 0.0
2017-Oct-08 04:50N 70°28' W 102°18'0 0.0 1012.9 -8.4
2017-Oct-08 04:40N 70°28' W 102°18'0 0.0 1012.9 -8.2
2017-Oct-08 04:20N 70°28' W 102°18'0 0.0 1012.9 -7.8
2017-Oct-08 04:10N 70°28' W 102°18'0 0.0 1012.9 -7.8
2017-Oct-08 04:00N 70°28' W 102°18'1 7.6 1012.9 -7.8
2017-Oct-08 03:50N 70°27' W 102°17'1 2.5 1012.9 -7.8
2017-Oct-08 03:20N 70°28' W 102°18'0 0.0 1012.8 -8.3
2017-Oct-08 03:10N 70°28' W 102°18'0 1.2 1012.8 -8.3
2017-Oct-08 03:00N 70°28' W 102°17'0 0.6 1012.8 -8.5
2017-Oct-08 02:40N 70°28' W 102°18'0 0.0 1012.8 -8.8
2017-Oct-08 02:30N 70°28' W 102°18'0 0.0 1012.8 -8.8
2017-Oct-08 02:20N 70°28' W 102°18'0 0.0 1012.8
2017-Oct-08 02:10N 70°28' W 102°18'0 0.0 1012.8 -8.9
2017-Oct-08 01:50N 70°28' W 102°18'0 0.0 1012.5 -9.0
2017-Oct-08 01:40N 70°28' W 102°18'0 0.0 1012.5 -9.3
2017-Oct-08 01:30N 70°28' W 102°18'0 0.0 1012.5 -9.1
2017-Oct-08 01:20N 70°28' W 102°18'0 0.0 1012.5 -9.1
2017-Oct-08 01:00N 70°28' W 102°18'0 0.0 1012.5 -8.5
2017-Oct-08 00:50N 70°28' W 102°18'0 0.0 1012.5 -8.5
2017-Oct-08 00:40N 70°28' W 102°18'0 1.2 1012.4 -8.1
2017-Oct-08 00:30N 70°28' W 102°19'0 0.6 1012.4 -8.1
2017-Oct-08 00:10N 70°28' W 102°19'0 2.4 1012.2 -7.8
2017-Oct-08 00:00N 70°28' W 102°18'0 0.0 -7.7
2017-Oct-07 23:50N 70°28' W 102°18'0 1.2 1012.1 -7.5
2017-Oct-07 23:40N 70°28' W 102°17'0 0.6 1012.1 -7.5
2017-Oct-07 23:20N 70°28' W 102°18'0 0.0 1012.0 -6.5
2017-Oct-07 23:10N 70°28' W 102°18'0 0.0 1012.0 -6.5
2017-Oct-07 23:00N 70°28' W 102°18'0 0.0 1012.0 -6.1
2017-Oct-07 22:50N 70°28' W 102°18'0 0.6 1012.0 -5.6
2017-Oct-07 22:30N 70°28' W 102°17'0 1.2 1011.8 -4.4
2017-Oct-07 22:20N 70°28' W 102°18'0 0.0 1011.7 -4.4
2017-Oct-07 22:10N 70°28' W 102°18'0 0.0 1011.7 -4.4
2017-Oct-07 22:00N 70°28' W 102°18'0 0.0 1011.7 -4.9
2017-Oct-07 21:30N 70°28' W 102°18'1 3.8 1011.6 -4.4
2017-Oct-07 21:20N 70°28' W 102°17'1 3.6 1011.4 -4.2
2017-Oct-07 21:10N 70°28' W 102°17'0 0.0 1011.4 -4.2
2017-Oct-07 20:50N 70°28' W 102°17'0 1.2 1011.3 -4.4
2017-Oct-07 20:40N 70°28' W 102°18'0 0.0 1011.1 -4.6
2017-Oct-07 20:30N 70°28' W 102°18'0 0.0 1011.1 -4.6
2017-Oct-07 19:40N 70°28' W 102°18'1 1.2 1011.0 -4.6
2017-Oct-07 19:10N 70°28' W 102°18'1 3.6 1010.9 -5.5
2017-Oct-07 19:00N 70°28' W 102°18'0 0.0 1010.7 -5.5
2017-Oct-07 18:50N 70°28' W 102°18'0 0.3 1010.7 -5.5
2017-Oct-07 18:10N 70°28' W 102°17'0 1.2 1010.6 -5.6
2017-Oct-07 18:00N 70°28' W 102°18'0 0.0 1010.6 -5.7
2017-Oct-07 17:50N 70°28' W 102°18'0 0.0 1010.6 -5.7
2017-Oct-07 17:30N 70°28' W 102°18'0 0.0 1010.5 -5.4
2017-Oct-07 17:20N 70°28' W 102°18'0 1.2 1010.3 -5.6
2017-Oct-07 17:10N 70°28' W 102°17'0 1.2 1010.3 -5.8
2017-Oct-07 17:00N 70°28' W 102°18'0 0.0 1010.3 -5.7
2017-Oct-07 16:20N 70°28' W 102°18'0 1.2 1010.0 -6.4
2017-Oct-07 16:10N 70°28' W 102°19'0 0.6 1010.0 -6.4
2017-Oct-07 15:50N 70°28' W 102°18'0 0.0 1009.9 -6.9
2017-Oct-07 15:40N 70°28' W 102°18'0 1.2 1009.8 -7.0
2017-Oct-07 15:30N 70°28' W 102°19'0 0.0 1009.8 -7.1
2017-Oct-07 15:20N 70°28' W 102°19'0 0.3 1009.8 -7.1
2017-Oct-07 14:40N 70°28' W 102°18'0 0.0 1009.5 -7.6
2017-Oct-07 14:10N 70°28' W 102°18'0 0.0 1009.4 -7.7
2017-Oct-07 14:00N 70°28' W 102°18'0 1.2 1009.4 -7.8
2017-Oct-07 13:50N 70°28' W 102°19'0 1.2 1009.4 -7.8
2017-Oct-07 13:40N 70°28' W 102°18'0 0.0 1009.4 -7.8
2017-Oct-07 13:00N 70°28' W 102°18'0 1.2 1009.1 -7.5
2017-Oct-07 12:50N 70°28' W 102°17'0 0.0 1009.1 -7.5
2017-Oct-07 12:30N 70°28' W 102°17'0 1.2 1009.0 -7.3
2017-Oct-07 12:20N 70°28' W 102°18'0 0.0 1009.0 -7.1
2017-Oct-07 12:10N 70°28' W 102°18'0 2.4 1009.0 -7.0
2017-Oct-07 12:00N 70°28' W 102°17'0 0.0 -6.9
2017-Oct-07 11:20N 70°28' W 102°17'0 2.4 1009.0 -6.9
2017-Oct-07 11:10N 70°28' W 102°18'0 0.0 1009.0 -6.9
2017-Oct-07 10:50N 70°28' W 102°18'0 0.0 1008.8 -6.5
2017-Oct-07 10:40N 70°28' W 102°18'0 0.6 1008.8 -6.5
2017-Oct-07 10:20N 70°28' W 102°19'0 0.3 1008.5 -6.0
2017-Oct-07 09:40N 70°28' W 102°18'0 0.0 1008.4 -5.8
2017-Oct-07 09:00N 70°28' W 102°18'0 0.0 1008.1 -5.4
2017-Oct-07 08:00N 70°28' W 102°18'0 0.3 1007.9 -5.1
2017-Oct-07 07:20N 70°28' W 102°17'0 0.4 1007.9 -5.1
2017-Oct-07 06:50N 70°28' W 102°18'0 0.0 1007.7 -5.2
2017-Oct-07 06:30N 70°28' W 102°18'0 0.0 1007.9 -5.2
2017-Oct-07 06:20N 70°28' W 102°18'0 0.0 1007.9 -5.2
2017-Oct-07 06:00N 70°28' W 102°18'0 0.0 1007.7 -5.3
2017-Oct-07 05:30N 70°28' W 102°18'0 0.0 1007.6 -5.4
2017-Oct-07 05:10N 70°28' W 102°18'0 0.0 1007.4
2017-Oct-07 05:00N 70°28' W 102°18'0 0.0 1007.4 -5.3
2017-Oct-07 04:50N 70°28' W 102°18'0 0.0 1007.4 -5.4
2017-Oct-07 04:40N 70°28' W 102°18'0 0.0 1007.4 -5.4
2017-Oct-07 04:20N 70°28' W 102°18'0 0.0 1007.4
2017-Oct-07 04:10N 70°28' W 102°18'0 0.0 1007.4 -5.5
2017-Oct-07 03:50N 70°28' W 102°18'0 0.0 1007.2 -5.7
2017-Oct-07 03:30N 70°28' W 102°18'0 0.0 1007.2 -5.6
2017-Oct-07 03:20N 70°28' W 102°18'0 0.0 1007.2 -5.6
2017-Oct-07 03:10N 70°28' W 102°18'0 0.0 1007.0 -5.5
2017-Oct-07 03:00N 70°28' W 102°18'0 0.0 1007.0 -5.4
2017-Oct-07 02:40N 70°28' W 102°18'0 0.0 1007.0 -5.3
2017-Oct-07 02:30N 70°28' W 102°18'0 0.0 1007.0 -5.3
2017-Oct-07 02:10N 70°28' W 102°18'0 2.4 1007.0 -5.0
2017-Oct-07 02:00N 70°28' W 102°17'0 2.4 1007.0 -4.9
2017-Oct-07 01:50N 70°28' W 102°18'0 0.0 1006.9 -4.9
2017-Oct-07 01:40N 70°28' W 102°18'0 0.0 1006.9 -4.9
2017-Oct-07 01:30N 70°28' W 102°18'   1006.9

Dump ship's entire track history